<?xml version="1.0" encoding="UTF-8" standalone="no" ?>
<gpx xmlns="http://www.topografix.com/GPX/1/1" xmlns:xsi="http://www.w3.org/2001/XMLSchema-instance" xsi:schemaLocation="http://www.topografix.com/GPX/1/1 http://www.topografix.com/GPX/1/1/gpx.xsd" version="1.1" creator="VisuGPX - https://www.visugpx.com">
  <metadata>
    <name>Circuit des 25 bosses</name>
    <desc><![CDATA[Circuit des 25 bosses dans le massif des Trois pignons.]]></desc>
  </metadata>
  <trk>
    <name><![CDATA[Circuit des 25 bosses_1]]></name>
    <trkseg>
      <trkpt lat="48.36487" lon="2.52698">
        <ele>76</ele>
        <time>2017-10-19T08:40:20Z</time>
      </trkpt>
      <trkpt lat="48.36502" lon="2.52682">
        <ele>76</ele>
        <time>2017-10-19T08:40:31Z</time>
      </trkpt>
      <trkpt lat="48.36516" lon="2.52663">
        <ele>76</ele>
        <time>2017-10-19T08:40:46Z</time>
      </trkpt>
      <trkpt lat="48.36534" lon="2.52658">
        <ele>76</ele>
        <time>2017-10-19T08:41:02Z</time>
      </trkpt>
      <trkpt lat="48.36553" lon="2.52657">
        <ele>76</ele>
        <time>2017-10-19T08:41:07Z</time>
      </trkpt>
      <trkpt lat="48.36571" lon="2.52667">
        <ele>76</ele>
        <time>2017-10-19T08:41:14Z</time>
      </trkpt>
      <trkpt lat="48.36575" lon="2.52696">
        <ele>76</ele>
        <time>2017-10-19T08:41:22Z</time>
      </trkpt>
      <trkpt lat="48.36573" lon="2.52724">
        <ele>77</ele>
        <time>2017-10-19T08:41:35Z</time>
      </trkpt>
      <trkpt lat="48.36572" lon="2.52752">
        <ele>78</ele>
        <time>2017-10-19T08:41:44Z</time>
      </trkpt>
      <trkpt lat="48.36572" lon="2.52785">
        <ele>77</ele>
        <time>2017-10-19T08:41:59Z</time>
      </trkpt>
      <trkpt lat="48.3658" lon="2.52809">
        <ele>77</ele>
        <time>2017-10-19T08:42:09Z</time>
      </trkpt>
      <trkpt lat="48.3658" lon="2.52842">
        <ele>77</ele>
        <time>2017-10-19T08:42:17Z</time>
      </trkpt>
      <trkpt lat="48.36566" lon="2.52863">
        <ele>76</ele>
        <time>2017-10-19T08:42:28Z</time>
      </trkpt>
      <trkpt lat="48.3655" lon="2.5288">
        <ele>76</ele>
        <time>2017-10-19T08:42:34Z</time>
      </trkpt>
      <trkpt lat="48.36539" lon="2.52905">
        <ele>76</ele>
        <time>2017-10-19T08:42:43Z</time>
      </trkpt>
      <trkpt lat="48.36526" lon="2.52929">
        <ele>76</ele>
        <time>2017-10-19T08:42:49Z</time>
      </trkpt>
      <trkpt lat="48.36512" lon="2.52948">
        <ele>76</ele>
        <time>2017-10-19T08:42:57Z</time>
      </trkpt>
      <trkpt lat="48.36507" lon="2.52975">
        <ele>76</ele>
        <time>2017-10-19T08:43:05Z</time>
      </trkpt>
      <trkpt lat="48.36498" lon="2.53">
        <ele>77</ele>
        <time>2017-10-19T08:43:18Z</time>
      </trkpt>
      <trkpt lat="48.36491" lon="2.53025">
        <ele>78</ele>
        <time>2017-10-19T08:43:23Z</time>
      </trkpt>
      <trkpt lat="48.36473" lon="2.53024">
        <ele>78</ele>
        <time>2017-10-19T08:43:35Z</time>
      </trkpt>
      <trkpt lat="48.36462" lon="2.53048">
        <ele>79</ele>
        <time>2017-10-19T08:43:54Z</time>
      </trkpt>
      <trkpt lat="48.36448" lon="2.53069">
        <ele>79</ele>
        <time>2017-10-19T08:44:10Z</time>
      </trkpt>
      <trkpt lat="48.36437" lon="2.53092">
        <ele>81</ele>
        <time>2017-10-19T08:44:23Z</time>
      </trkpt>
      <trkpt lat="48.36428" lon="2.53117">
        <ele>81</ele>
        <time>2017-10-19T08:45:00Z</time>
      </trkpt>
      <trkpt lat="48.36413" lon="2.53136">
        <ele>79</ele>
        <time>2017-10-19T08:45:12Z</time>
      </trkpt>
      <trkpt lat="48.36395" lon="2.5314">
        <ele>79</ele>
        <time>2017-10-19T08:45:26Z</time>
      </trkpt>
      <trkpt lat="48.36375" lon="2.53142">
        <ele>79</ele>
        <time>2017-10-19T08:45:32Z</time>
      </trkpt>
      <trkpt lat="48.36358" lon="2.53156">
        <ele>79</ele>
        <time>2017-10-19T08:45:38Z</time>
      </trkpt>
      <trkpt lat="48.36339" lon="2.53153">
        <ele>79</ele>
        <time>2017-10-19T08:45:43Z</time>
      </trkpt>
      <trkpt lat="48.36326" lon="2.53173">
        <ele>81</ele>
        <time>2017-10-19T08:45:54Z</time>
      </trkpt>
      <trkpt lat="48.36316" lon="2.53197">
        <ele>83</ele>
        <time>2017-10-19T08:46:00Z</time>
      </trkpt>
      <trkpt lat="48.36308" lon="2.53221">
        <ele>85</ele>
        <time>2017-10-19T08:46:12Z</time>
      </trkpt>
      <trkpt lat="48.36298" lon="2.53246">
        <ele>86</ele>
        <time>2017-10-19T08:46:24Z</time>
      </trkpt>
      <trkpt lat="48.36286" lon="2.53268">
        <ele>90</ele>
        <time>2017-10-19T08:46:42Z</time>
      </trkpt>
      <trkpt lat="48.3627" lon="2.5328">
        <ele>91</ele>
        <time>2017-10-19T08:46:58Z</time>
      </trkpt>
      <trkpt lat="48.36257" lon="2.53299">
        <ele>92</ele>
        <time>2017-10-19T08:47:11Z</time>
      </trkpt>
      <trkpt lat="48.36245" lon="2.53321">
        <ele>94</ele>
        <time>2017-10-19T08:47:39Z</time>
      </trkpt>
      <trkpt lat="48.36228" lon="2.53335">
        <ele>98</ele>
        <time>2017-10-19T08:47:47Z</time>
      </trkpt>
      <trkpt lat="48.36212" lon="2.53345">
        <ele>99</ele>
        <time>2017-10-19T08:47:58Z</time>
      </trkpt>
      <trkpt lat="48.36194" lon="2.53354">
        <ele>100</ele>
        <time>2017-10-19T08:48:14Z</time>
      </trkpt>
      <trkpt lat="48.36182" lon="2.53377">
        <ele>101</ele>
        <time>2017-10-19T08:48:40Z</time>
      </trkpt>
      <trkpt lat="48.36168" lon="2.53397">
        <ele>103</ele>
        <time>2017-10-19T08:49:21Z</time>
      </trkpt>
      <trkpt lat="48.36156" lon="2.53418">
        <ele>104</ele>
        <time>2017-10-19T08:49:56Z</time>
      </trkpt>
      <trkpt lat="48.36152" lon="2.53446">
        <ele>102</ele>
        <time>2017-10-19T08:50:09Z</time>
      </trkpt>
      <trkpt lat="48.3615" lon="2.53473">
        <ele>102</ele>
        <time>2017-10-19T08:50:16Z</time>
      </trkpt>
      <trkpt lat="48.36153" lon="2.53502">
        <ele>105</ele>
        <time>2017-10-19T08:50:25Z</time>
      </trkpt>
      <trkpt lat="48.36169" lon="2.53522">
        <ele>109</ele>
        <time>2017-10-19T08:50:45Z</time>
      </trkpt>
      <trkpt lat="48.36183" lon="2.53543">
        <ele>108</ele>
        <time>2017-10-19T08:50:55Z</time>
      </trkpt>
      <trkpt lat="48.3619" lon="2.53571">
        <ele>107</ele>
        <time>2017-10-19T08:51:06Z</time>
      </trkpt>
      <trkpt lat="48.36191" lon="2.53604">
        <ele>104</ele>
        <time>2017-10-19T08:51:11Z</time>
      </trkpt>
      <trkpt lat="48.36185" lon="2.53636">
        <ele>103</ele>
        <time>2017-10-19T08:51:16Z</time>
      </trkpt>
      <trkpt lat="48.36186" lon="2.53663">
        <ele>102</ele>
        <time>2017-10-19T08:51:24Z</time>
      </trkpt>
      <trkpt lat="48.36182" lon="2.53695">
        <ele>102</ele>
        <time>2017-10-19T08:51:46Z</time>
      </trkpt>
      <trkpt lat="48.36168" lon="2.53713">
        <ele>103</ele>
        <time>2017-10-19T08:51:50Z</time>
      </trkpt>
      <trkpt lat="48.36152" lon="2.53731">
        <ele>99</ele>
        <time>2017-10-19T08:51:56Z</time>
      </trkpt>
      <trkpt lat="48.36139" lon="2.5375">
        <ele>102</ele>
        <time>2017-10-19T08:52:02Z</time>
      </trkpt>
      <trkpt lat="48.36119" lon="2.53752">
        <ele>100</ele>
        <time>2017-10-19T08:52:25Z</time>
      </trkpt>
      <trkpt lat="48.36117" lon="2.53724">
        <ele>95</ele>
        <time>2017-10-19T08:52:37Z</time>
      </trkpt>
      <trkpt lat="48.36098" lon="2.53725">
        <ele>94</ele>
        <time>2017-10-19T08:52:54Z</time>
      </trkpt>
      <trkpt lat="48.36094" lon="2.53752">
        <ele>96</ele>
        <time>2017-10-19T08:53:01Z</time>
      </trkpt>
      <trkpt lat="48.36091" lon="2.5378">
        <ele>99</ele>
        <time>2017-10-19T08:53:18Z</time>
      </trkpt>
      <trkpt lat="48.36094" lon="2.53809">
        <ele>100</ele>
        <time>2017-10-19T08:53:26Z</time>
      </trkpt>
      <trkpt lat="48.36108" lon="2.53828">
        <ele>101</ele>
        <time>2017-10-19T08:53:38Z</time>
      </trkpt>
      <trkpt lat="48.3611" lon="2.53862">
        <ele>104</ele>
        <time>2017-10-19T08:54:19Z</time>
      </trkpt>
      <trkpt lat="48.36115" lon="2.53891">
        <ele>105</ele>
        <time>2017-10-19T08:54:46Z</time>
      </trkpt>
      <trkpt lat="48.36119" lon="2.53864">
        <ele>105</ele>
        <time>2017-10-19T08:55:35Z</time>
      </trkpt>
      <trkpt lat="48.36129" lon="2.53842">
        <ele>106</ele>
        <time>2017-10-19T08:55:39Z</time>
      </trkpt>
      <trkpt lat="48.36146" lon="2.53826">
        <ele>105</ele>
        <time>2017-10-19T08:55:47Z</time>
      </trkpt>
      <trkpt lat="48.36164" lon="2.53821">
        <ele>107</ele>
        <time>2017-10-19T08:55:59Z</time>
      </trkpt>
      <trkpt lat="48.36173" lon="2.53796">
        <ele>107</ele>
        <time>2017-10-19T08:56:34Z</time>
      </trkpt>
      <trkpt lat="48.36179" lon="2.53769">
        <ele>106</ele>
        <time>2017-10-19T08:56:52Z</time>
      </trkpt>
      <trkpt lat="48.36193" lon="2.5375">
        <ele>106</ele>
        <time>2017-10-19T08:57:07Z</time>
      </trkpt>
      <trkpt lat="48.36197" lon="2.53722">
        <ele>103</ele>
        <time>2017-10-19T08:57:19Z</time>
      </trkpt>
      <trkpt lat="48.36206" lon="2.53694">
        <ele>103</ele>
        <time>2017-10-19T08:57:39Z</time>
      </trkpt>
      <trkpt lat="48.36223" lon="2.53682">
        <ele>104</ele>
        <time>2017-10-19T08:57:51Z</time>
      </trkpt>
      <trkpt lat="48.36227" lon="2.53653">
        <ele>105</ele>
        <time>2017-10-19T08:58:14Z</time>
      </trkpt>
      <trkpt lat="48.36222" lon="2.53626">
        <ele>105</ele>
        <time>2017-10-19T08:58:19Z</time>
      </trkpt>
      <trkpt lat="48.36209" lon="2.53606">
        <ele>105</ele>
        <time>2017-10-19T08:58:38Z</time>
      </trkpt>
      <trkpt lat="48.36204" lon="2.5358">
        <ele>108</ele>
        <time>2017-10-19T08:58:52Z</time>
      </trkpt>
      <trkpt lat="48.36205" lon="2.53551">
        <ele>108</ele>
        <time>2017-10-19T08:59:08Z</time>
      </trkpt>
      <trkpt lat="48.36215" lon="2.53528">
        <ele>109</ele>
        <time>2017-10-19T08:59:35Z</time>
      </trkpt>
      <trkpt lat="48.36219" lon="2.535">
        <ele>109</ele>
        <time>2017-10-19T08:59:48Z</time>
      </trkpt>
      <trkpt lat="48.36216" lon="2.53474">
        <ele>108</ele>
        <time>2017-10-19T09:00:02Z</time>
      </trkpt>
      <trkpt lat="48.36227" lon="2.53451">
        <ele>107</ele>
        <time>2017-10-19T09:00:16Z</time>
      </trkpt>
      <trkpt lat="48.36236" lon="2.53427">
        <ele>106</ele>
        <time>2017-10-19T09:00:36Z</time>
      </trkpt>
      <trkpt lat="48.36254" lon="2.53415">
        <ele>103</ele>
        <time>2017-10-19T09:01:03Z</time>
      </trkpt>
      <trkpt lat="48.36262" lon="2.53387">
        <ele>99</ele>
        <time>2017-10-19T09:01:23Z</time>
      </trkpt>
      <trkpt lat="48.36278" lon="2.53372">
        <ele>97</ele>
        <time>2017-10-19T09:01:44Z</time>
      </trkpt>
      <trkpt lat="48.36296" lon="2.53366">
        <ele>97</ele>
        <time>2017-10-19T09:01:52Z</time>
      </trkpt>
      <trkpt lat="48.36307" lon="2.53344">
        <ele>96</ele>
        <time>2017-10-19T09:02:03Z</time>
      </trkpt>
      <trkpt lat="48.36317" lon="2.53316">
        <ele>92</ele>
        <time>2017-10-19T09:02:19Z</time>
      </trkpt>
      <trkpt lat="48.36335" lon="2.5331">
        <ele>90</ele>
        <time>2017-10-19T09:02:28Z</time>
      </trkpt>
      <trkpt lat="48.36355" lon="2.53306">
        <ele>89</ele>
        <time>2017-10-19T09:02:35Z</time>
      </trkpt>
      <trkpt lat="48.36372" lon="2.53321">
        <ele>89</ele>
        <time>2017-10-19T09:02:43Z</time>
      </trkpt>
      <trkpt lat="48.36387" lon="2.53337">
        <ele>92</ele>
        <time>2017-10-19T09:02:52Z</time>
      </trkpt>
      <trkpt lat="48.36404" lon="2.53348">
        <ele>91</ele>
        <time>2017-10-19T09:03:11Z</time>
      </trkpt>
      <trkpt lat="48.36422" lon="2.53356">
        <ele>91</ele>
        <time>2017-10-19T09:03:40Z</time>
      </trkpt>
      <trkpt lat="48.36441" lon="2.53365">
        <ele>91</ele>
        <time>2017-10-19T09:04:17Z</time>
      </trkpt>
      <trkpt lat="48.36458" lon="2.53354">
        <ele>91</ele>
        <time>2017-10-19T09:04:33Z</time>
      </trkpt>
      <trkpt lat="48.36473" lon="2.53368">
        <ele>91</ele>
        <time>2017-10-19T09:04:45Z</time>
      </trkpt>
      <trkpt lat="48.36489" lon="2.5339">
        <ele>92</ele>
        <time>2017-10-19T09:05:10Z</time>
      </trkpt>
      <trkpt lat="48.36483" lon="2.53415">
        <ele>93</ele>
        <time>2017-10-19T09:05:31Z</time>
      </trkpt>
      <trkpt lat="48.36485" lon="2.53443">
        <ele>96</ele>
        <time>2017-10-19T09:05:45Z</time>
      </trkpt>
      <trkpt lat="48.36495" lon="2.53465">
        <ele>97</ele>
        <time>2017-10-19T09:06:06Z</time>
      </trkpt>
      <trkpt lat="48.36502" lon="2.53492">
        <ele>99</ele>
        <time>2017-10-19T09:06:18Z</time>
      </trkpt>
      <trkpt lat="48.36492" lon="2.53514">
        <ele>99</ele>
        <time>2017-10-19T09:06:37Z</time>
      </trkpt>
      <trkpt lat="48.36494" lon="2.53541">
        <ele>99</ele>
        <time>2017-10-19T09:06:52Z</time>
      </trkpt>
      <trkpt lat="48.36508" lon="2.53563">
        <ele>100</ele>
        <time>2017-10-19T09:07:03Z</time>
      </trkpt>
      <trkpt lat="48.36526" lon="2.53577">
        <ele>100</ele>
        <time>2017-10-19T09:07:12Z</time>
      </trkpt>
      <trkpt lat="48.36541" lon="2.53593">
        <ele>101</ele>
        <time>2017-10-19T09:07:19Z</time>
      </trkpt>
      <trkpt lat="48.3656" lon="2.53605">
        <ele>101</ele>
        <time>2017-10-19T09:07:49Z</time>
      </trkpt>
      <trkpt lat="48.36581" lon="2.536">
        <ele>102</ele>
        <time>2017-10-19T09:07:58Z</time>
      </trkpt>
      <trkpt lat="48.36598" lon="2.53594">
        <ele>103</ele>
        <time>2017-10-19T09:08:08Z</time>
      </trkpt>
      <trkpt lat="48.36617" lon="2.53595">
        <ele>104</ele>
        <time>2017-10-19T09:08:19Z</time>
      </trkpt>
      <trkpt lat="48.36637" lon="2.53591">
        <ele>104</ele>
        <time>2017-10-19T09:08:32Z</time>
      </trkpt>
      <trkpt lat="48.36633" lon="2.53562">
        <ele>100</ele>
        <time>2017-10-19T09:09:00Z</time>
      </trkpt>
      <trkpt lat="48.36638" lon="2.53535">
        <ele>99</ele>
        <time>2017-10-19T09:09:07Z</time>
      </trkpt>
      <trkpt lat="48.36646" lon="2.53503">
        <ele>95</ele>
        <time>2017-10-19T09:09:16Z</time>
      </trkpt>
      <trkpt lat="48.36654" lon="2.53475">
        <ele>91</ele>
        <time>2017-10-19T09:09:21Z</time>
      </trkpt>
      <trkpt lat="48.36665" lon="2.53449">
        <ele>89</ele>
        <time>2017-10-19T09:09:25Z</time>
      </trkpt>
      <trkpt lat="48.36682" lon="2.53431">
        <ele>86</ele>
        <time>2017-10-19T09:09:30Z</time>
      </trkpt>
      <trkpt lat="48.367" lon="2.53422">
        <ele>87</ele>
        <time>2017-10-19T09:09:38Z</time>
      </trkpt>
      <trkpt lat="48.36719" lon="2.5343">
        <ele>89</ele>
        <time>2017-10-19T09:09:50Z</time>
      </trkpt>
      <trkpt lat="48.36736" lon="2.53441">
        <ele>89</ele>
        <time>2017-10-19T09:10:03Z</time>
      </trkpt>
      <trkpt lat="48.36741" lon="2.53469">
        <ele>90</ele>
        <time>2017-10-19T09:10:23Z</time>
      </trkpt>
      <trkpt lat="48.36742" lon="2.53498">
        <ele>93</ele>
        <time>2017-10-19T09:10:43Z</time>
      </trkpt>
      <trkpt lat="48.36759" lon="2.5351">
        <ele>96</ele>
        <time>2017-10-19T09:11:22Z</time>
      </trkpt>
      <trkpt lat="48.36777" lon="2.53515">
        <ele>98</ele>
        <time>2017-10-19T09:11:39Z</time>
      </trkpt>
      <trkpt lat="48.36797" lon="2.53506">
        <ele>98</ele>
        <time>2017-10-19T09:11:55Z</time>
      </trkpt>
      <trkpt lat="48.36815" lon="2.53513">
        <ele>98</ele>
        <time>2017-10-19T09:12:03Z</time>
      </trkpt>
      <trkpt lat="48.36834" lon="2.53518">
        <ele>95</ele>
        <time>2017-10-19T09:12:12Z</time>
      </trkpt>
      <trkpt lat="48.36845" lon="2.53495">
        <ele>91</ele>
        <time>2017-10-19T09:12:42Z</time>
      </trkpt>
      <trkpt lat="48.36866" lon="2.53499">
        <ele>88</ele>
        <time>2017-10-19T09:13:25Z</time>
      </trkpt>
      <trkpt lat="48.36885" lon="2.535">
        <ele>92</ele>
        <time>2017-10-19T09:13:34Z</time>
      </trkpt>
      <trkpt lat="48.36903" lon="2.53506">
        <ele>88</ele>
        <time>2017-10-19T09:13:38Z</time>
      </trkpt>
      <trkpt lat="48.36919" lon="2.5352">
        <ele>85</ele>
        <time>2017-10-19T09:13:45Z</time>
      </trkpt>
      <trkpt lat="48.36925" lon="2.53546">
        <ele>88</ele>
        <time>2017-10-19T09:14:12Z</time>
      </trkpt>
      <trkpt lat="48.36926" lon="2.53574">
        <ele>92</ele>
        <time>2017-10-19T09:15:02Z</time>
      </trkpt>
      <trkpt lat="48.36933" lon="2.53601">
        <ele>98</ele>
        <time>2017-10-19T09:15:09Z</time>
      </trkpt>
      <trkpt lat="48.36953" lon="2.53603">
        <ele>97</ele>
        <time>2017-10-19T09:15:25Z</time>
      </trkpt>
      <trkpt lat="48.36971" lon="2.53597">
        <ele>95</ele>
        <time>2017-10-19T09:15:36Z</time>
      </trkpt>
      <trkpt lat="48.3699" lon="2.536">
        <ele>93</ele>
        <time>2017-10-19T09:15:58Z</time>
      </trkpt>
      <trkpt lat="48.37011" lon="2.53612">
        <ele>89</ele>
        <time>2017-10-19T09:16:16Z</time>
      </trkpt>
      <trkpt lat="48.37014" lon="2.53639">
        <ele>92</ele>
        <time>2017-10-19T09:16:56Z</time>
      </trkpt>
      <trkpt lat="48.37028" lon="2.53658">
        <ele>92</ele>
        <time>2017-10-19T09:17:13Z</time>
      </trkpt>
      <trkpt lat="48.3703" lon="2.53686">
        <ele>98</ele>
        <time>2017-10-19T09:17:26Z</time>
      </trkpt>
      <trkpt lat="48.37031" lon="2.53713">
        <ele>98</ele>
        <time>2017-10-19T09:18:39Z</time>
      </trkpt>
      <trkpt lat="48.37036" lon="2.53741">
        <ele>99</ele>
        <time>2017-10-19T09:18:50Z</time>
      </trkpt>
      <trkpt lat="48.37045" lon="2.53771">
        <ele>102</ele>
        <time>2017-10-19T09:18:59Z</time>
      </trkpt>
      <trkpt lat="48.37051" lon="2.53799">
        <ele>102</ele>
        <time>2017-10-19T09:19:03Z</time>
      </trkpt>
      <trkpt lat="48.37066" lon="2.53817">
        <ele>101</ele>
        <time>2017-10-19T09:19:12Z</time>
      </trkpt>
      <trkpt lat="48.37081" lon="2.53833">
        <ele>100</ele>
        <time>2017-10-19T09:19:19Z</time>
      </trkpt>
      <trkpt lat="48.37093" lon="2.53854">
        <ele>96</ele>
        <time>2017-10-19T09:19:38Z</time>
      </trkpt>
      <trkpt lat="48.37109" lon="2.53878">
        <ele>95</ele>
        <time>2017-10-19T09:19:49Z</time>
      </trkpt>
      <trkpt lat="48.37128" lon="2.53877">
        <ele>94</ele>
        <time>2017-10-19T09:20:24Z</time>
      </trkpt>
      <trkpt lat="48.37132" lon="2.53905">
        <ele>94</ele>
        <time>2017-10-19T09:20:40Z</time>
      </trkpt>
      <trkpt lat="48.37139" lon="2.53931">
        <ele>93</ele>
        <time>2017-10-19T09:20:58Z</time>
      </trkpt>
      <trkpt lat="48.37158" lon="2.53942">
        <ele>92</ele>
        <time>2017-10-19T09:21:13Z</time>
      </trkpt>
      <trkpt lat="48.37177" lon="2.53949">
        <ele>89</ele>
        <time>2017-10-19T09:21:20Z</time>
      </trkpt>
      <trkpt lat="48.37194" lon="2.53962">
        <ele>88</ele>
        <time>2017-10-19T09:21:25Z</time>
      </trkpt>
      <trkpt lat="48.37212" lon="2.53956">
        <ele>87</ele>
        <time>2017-10-19T09:21:38Z</time>
      </trkpt>
      <trkpt lat="48.37212" lon="2.53985">
        <ele>87</ele>
        <time>2017-10-19T09:22:14Z</time>
      </trkpt>
      <trkpt lat="48.37215" lon="2.54015">
        <ele>88</ele>
        <time>2017-10-19T09:22:28Z</time>
      </trkpt>
      <trkpt lat="48.37227" lon="2.54036">
        <ele>88</ele>
        <time>2017-10-19T09:22:41Z</time>
      </trkpt>
      <trkpt lat="48.37247" lon="2.54046">
        <ele>88</ele>
        <time>2017-10-19T09:23:07Z</time>
      </trkpt>
      <trkpt lat="48.37263" lon="2.54061">
        <ele>89</ele>
        <time>2017-10-19T09:23:19Z</time>
      </trkpt>
      <trkpt lat="48.3728" lon="2.54049">
        <ele>88</ele>
        <time>2017-10-19T09:23:38Z</time>
      </trkpt>
      <trkpt lat="48.37299" lon="2.54048">
        <ele>87</ele>
        <time>2017-10-19T09:23:54Z</time>
      </trkpt>
      <trkpt lat="48.37316" lon="2.54056">
        <ele>88</ele>
        <time>2017-10-19T09:24:01Z</time>
      </trkpt>
      <trkpt lat="48.37333" lon="2.54073">
        <ele>88</ele>
        <time>2017-10-19T09:24:12Z</time>
      </trkpt>
      <trkpt lat="48.3735" lon="2.54088">
        <ele>88</ele>
        <time>2017-10-19T09:24:20Z</time>
      </trkpt>
      <trkpt lat="48.37369" lon="2.54085">
        <ele>87</ele>
        <time>2017-10-19T09:24:33Z</time>
      </trkpt>
      <trkpt lat="48.3739" lon="2.54084">
        <ele>86</ele>
        <time>2017-10-19T09:24:49Z</time>
      </trkpt>
      <trkpt lat="48.37408" lon="2.54086">
        <ele>84</ele>
        <time>2017-10-19T09:25:07Z</time>
      </trkpt>
      <trkpt lat="48.3742" lon="2.54064">
        <ele>83</ele>
        <time>2017-10-19T09:25:16Z</time>
      </trkpt>
      <trkpt lat="48.37433" lon="2.54041">
        <ele>83</ele>
        <time>2017-10-19T09:25:28Z</time>
      </trkpt>
      <trkpt lat="48.37451" lon="2.5403">
        <ele>84</ele>
        <time>2017-10-19T09:25:41Z</time>
      </trkpt>
      <trkpt lat="48.37461" lon="2.54006">
        <ele>84</ele>
        <time>2017-10-19T09:25:52Z</time>
      </trkpt>
      <trkpt lat="48.37477" lon="2.53992">
        <ele>84</ele>
        <time>2017-10-19T09:26:02Z</time>
      </trkpt>
      <trkpt lat="48.37496" lon="2.53989">
        <ele>85</ele>
        <time>2017-10-19T09:26:19Z</time>
      </trkpt>
      <trkpt lat="48.37516" lon="2.53984">
        <ele>87</ele>
        <time>2017-10-19T09:26:44Z</time>
      </trkpt>
      <trkpt lat="48.37536" lon="2.53987">
        <ele>87</ele>
        <time>2017-10-19T09:26:57Z</time>
      </trkpt>
      <trkpt lat="48.37549" lon="2.54009">
        <ele>90</ele>
        <time>2017-10-19T09:27:06Z</time>
      </trkpt>
      <trkpt lat="48.37552" lon="2.54036">
        <ele>91</ele>
        <time>2017-10-19T09:27:19Z</time>
      </trkpt>
      <trkpt lat="48.37556" lon="2.54064">
        <ele>91</ele>
        <time>2017-10-19T09:27:32Z</time>
      </trkpt>
      <trkpt lat="48.37568" lon="2.54087">
        <ele>95</ele>
        <time>2017-10-19T09:27:51Z</time>
      </trkpt>
      <trkpt lat="48.37577" lon="2.5411">
        <ele>95</ele>
        <time>2017-10-19T09:28:04Z</time>
      </trkpt>
      <trkpt lat="48.37585" lon="2.54135">
        <ele>95</ele>
        <time>2017-10-19T09:28:19Z</time>
      </trkpt>
      <trkpt lat="48.3759" lon="2.54165">
        <ele>98</ele>
        <time>2017-10-19T09:28:32Z</time>
      </trkpt>
      <trkpt lat="48.37584" lon="2.5419">
        <ele>98</ele>
        <time>2017-10-19T09:28:54Z</time>
      </trkpt>
      <trkpt lat="48.37571" lon="2.54209">
        <ele>99</ele>
        <time>2017-10-19T09:29:10Z</time>
      </trkpt>
      <trkpt lat="48.37563" lon="2.54237">
        <ele>100</ele>
        <time>2017-10-19T09:29:25Z</time>
      </trkpt>
      <trkpt lat="48.37573" lon="2.54261">
        <ele>103</ele>
        <time>2017-10-19T09:29:53Z</time>
      </trkpt>
      <trkpt lat="48.37576" lon="2.5429">
        <ele>102</ele>
        <time>2017-10-19T09:30:04Z</time>
      </trkpt>
      <trkpt lat="48.37585" lon="2.54315">
        <ele>104</ele>
        <time>2017-10-19T09:30:14Z</time>
      </trkpt>
      <trkpt lat="48.37586" lon="2.54342">
        <ele>107</ele>
        <time>2017-10-19T09:30:36Z</time>
      </trkpt>
      <trkpt lat="48.37586" lon="2.54372">
        <ele>103</ele>
        <time>2017-10-19T09:30:51Z</time>
      </trkpt>
      <trkpt lat="48.37591" lon="2.54399">
        <ele>103</ele>
        <time>2017-10-19T09:31:09Z</time>
      </trkpt>
      <trkpt lat="48.37601" lon="2.54423">
        <ele>103</ele>
        <time>2017-10-19T09:31:40Z</time>
      </trkpt>
      <trkpt lat="48.376" lon="2.5445">
        <ele>102</ele>
        <time>2017-10-19T09:31:47Z</time>
      </trkpt>
      <trkpt lat="48.37604" lon="2.54478">
        <ele>102</ele>
        <time>2017-10-19T09:31:56Z</time>
      </trkpt>
      <trkpt lat="48.37608" lon="2.54505">
        <ele>103</ele>
        <time>2017-10-19T09:32:11Z</time>
      </trkpt>
      <trkpt lat="48.37606" lon="2.54534">
        <ele>103</ele>
        <time>2017-10-19T09:33:00Z</time>
      </trkpt>
      <trkpt lat="48.37606" lon="2.54567">
        <ele>103</ele>
        <time>2017-10-19T09:33:19Z</time>
      </trkpt>
      <trkpt lat="48.37621" lon="2.54587">
        <ele>103</ele>
        <time>2017-10-19T09:33:46Z</time>
      </trkpt>
      <trkpt lat="48.37622" lon="2.54617">
        <ele>102</ele>
        <time>2017-10-19T09:33:53Z</time>
      </trkpt>
      <trkpt lat="48.37622" lon="2.54647">
        <ele>102</ele>
        <time>2017-10-19T09:34:00Z</time>
      </trkpt>
      <trkpt lat="48.37624" lon="2.54674">
        <ele>102</ele>
        <time>2017-10-19T09:34:07Z</time>
      </trkpt>
      <trkpt lat="48.3764" lon="2.54687">
        <ele>102</ele>
        <time>2017-10-19T09:34:23Z</time>
      </trkpt>
      <trkpt lat="48.37655" lon="2.5467">
        <ele>101</ele>
        <time>2017-10-19T09:34:30Z</time>
      </trkpt>
      <trkpt lat="48.37666" lon="2.54648">
        <ele>101</ele>
        <time>2017-10-19T09:34:36Z</time>
      </trkpt>
      <trkpt lat="48.37688" lon="2.54639">
        <ele>103</ele>
        <time>2017-10-19T09:34:45Z</time>
      </trkpt>
      <trkpt lat="48.37707" lon="2.54643">
        <ele>103</ele>
        <time>2017-10-19T09:34:55Z</time>
      </trkpt>
      <trkpt lat="48.37722" lon="2.54626">
        <ele>103</ele>
        <time>2017-10-19T09:35:21Z</time>
      </trkpt>
      <trkpt lat="48.3774" lon="2.54633">
        <ele>104</ele>
        <time>2017-10-19T09:35:52Z</time>
      </trkpt>
      <trkpt lat="48.37758" lon="2.54636">
        <ele>108</ele>
        <time>2017-10-19T09:36:40Z</time>
      </trkpt>
      <trkpt lat="48.37775" lon="2.54626">
        <ele>108</ele>
        <time>2017-10-19T09:37:05Z</time>
      </trkpt>
      <trkpt lat="48.37794" lon="2.54641">
        <ele>109</ele>
        <time>2017-10-19T09:37:18Z</time>
      </trkpt>
      <trkpt lat="48.37814" lon="2.54644">
        <ele>109</ele>
        <time>2017-10-19T09:37:31Z</time>
      </trkpt>
      <trkpt lat="48.37832" lon="2.54641">
        <ele>110</ele>
        <time>2017-10-19T09:37:57Z</time>
      </trkpt>
      <trkpt lat="48.37845" lon="2.54621">
        <ele>111</ele>
        <time>2017-10-19T09:38:32Z</time>
      </trkpt>
      <trkpt lat="48.37863" lon="2.54614">
        <ele>111</ele>
        <time>2017-10-19T09:38:47Z</time>
      </trkpt>
      <trkpt lat="48.37879" lon="2.546">
        <ele>111</ele>
        <time>2017-10-19T09:38:58Z</time>
      </trkpt>
      <trkpt lat="48.37893" lon="2.54582">
        <ele>105</ele>
        <time>2017-10-19T09:39:13Z</time>
      </trkpt>
      <trkpt lat="48.37913" lon="2.54594">
        <ele>110</ele>
        <time>2017-10-19T09:39:53Z</time>
      </trkpt>
      <trkpt lat="48.37925" lon="2.54615">
        <ele>110</ele>
        <time>2017-10-19T09:40:08Z</time>
      </trkpt>
      <trkpt lat="48.37942" lon="2.54628">
        <ele>109</ele>
        <time>2017-10-19T09:40:38Z</time>
      </trkpt>
      <trkpt lat="48.37961" lon="2.54627">
        <ele>109</ele>
        <time>2017-10-19T09:40:45Z</time>
      </trkpt>
      <trkpt lat="48.37983" lon="2.54634">
        <ele>108</ele>
        <time>2017-10-19T09:41:12Z</time>
      </trkpt>
      <trkpt lat="48.38" lon="2.54641">
        <ele>108</ele>
        <time>2017-10-19T09:41:17Z</time>
      </trkpt>
      <trkpt lat="48.38017" lon="2.5463">
        <ele>108</ele>
        <time>2017-10-19T09:41:26Z</time>
      </trkpt>
      <trkpt lat="48.38036" lon="2.54631">
        <ele>109</ele>
        <time>2017-10-19T09:42:42Z</time>
      </trkpt>
      <trkpt lat="48.38053" lon="2.54635">
        <ele>109</ele>
        <time>2017-10-19T09:43:10Z</time>
      </trkpt>
      <trkpt lat="48.38052" lon="2.54665">
        <ele>111</ele>
        <time>2017-10-19T09:43:43Z</time>
      </trkpt>
      <trkpt lat="48.38062" lon="2.54689">
        <ele>113</ele>
        <time>2017-10-19T09:44:06Z</time>
      </trkpt>
      <trkpt lat="48.38078" lon="2.54702">
        <ele>113</ele>
        <time>2017-10-19T09:44:18Z</time>
      </trkpt>
      <trkpt lat="48.38096" lon="2.54709">
        <ele>115</ele>
        <time>2017-10-19T09:44:33Z</time>
      </trkpt>
      <trkpt lat="48.38116" lon="2.5471">
        <ele>115</ele>
        <time>2017-10-19T09:44:57Z</time>
      </trkpt>
      <trkpt lat="48.38136" lon="2.54697">
        <ele>115</ele>
        <time>2017-10-19T09:45:15Z</time>
      </trkpt>
      <trkpt lat="48.38149" lon="2.54677">
        <ele>115</ele>
        <time>2017-10-19T09:45:56Z</time>
      </trkpt>
      <trkpt lat="48.38165" lon="2.54665">
        <ele>115</ele>
        <time>2017-10-19T09:46:14Z</time>
      </trkpt>
      <trkpt lat="48.38174" lon="2.54641">
        <ele>115</ele>
        <time>2017-10-19T09:46:30Z</time>
      </trkpt>
      <trkpt lat="48.38183" lon="2.54613">
        <ele>115</ele>
        <time>2017-10-19T09:46:48Z</time>
      </trkpt>
      <trkpt lat="48.38185" lon="2.54583">
        <ele>110</ele>
        <time>2017-10-19T09:47:13Z</time>
      </trkpt>
      <trkpt lat="48.38201" lon="2.54568">
        <ele>109</ele>
        <time>2017-10-19T09:47:40Z</time>
      </trkpt>
      <trkpt lat="48.38222" lon="2.54566">
        <ele>110</ele>
        <time>2017-10-19T09:48:07Z</time>
      </trkpt>
      <trkpt lat="48.3824" lon="2.54567">
        <ele>112</ele>
        <time>2017-10-19T09:49:08Z</time>
      </trkpt>
      <trkpt lat="48.38259" lon="2.54569">
        <ele>115</ele>
        <time>2017-10-19T09:49:20Z</time>
      </trkpt>
      <trkpt lat="48.38278" lon="2.54562">
        <ele>114</ele>
        <time>2017-10-19T09:49:39Z</time>
      </trkpt>
      <trkpt lat="48.38291" lon="2.54542">
        <ele>113</ele>
        <time>2017-10-19T09:50:00Z</time>
      </trkpt>
      <trkpt lat="48.38307" lon="2.54529">
        <ele>113</ele>
        <time>2017-10-19T09:50:21Z</time>
      </trkpt>
      <trkpt lat="48.38307" lon="2.54501">
        <ele>113</ele>
        <time>2017-10-19T09:50:40Z</time>
      </trkpt>
      <trkpt lat="48.38309" lon="2.54474">
        <ele>108</ele>
        <time>2017-10-19T09:50:52Z</time>
      </trkpt>
      <trkpt lat="48.38318" lon="2.5445">
        <ele>108</ele>
        <time>2017-10-19T09:51:32Z</time>
      </trkpt>
      <trkpt lat="48.38312" lon="2.54424">
        <ele>108</ele>
        <time>2017-10-19T09:52:03Z</time>
      </trkpt>
      <trkpt lat="48.3832" lon="2.544">
        <ele>106</ele>
        <time>2017-10-19T09:52:36Z</time>
      </trkpt>
      <trkpt lat="48.38335" lon="2.54383">
        <ele>112</ele>
        <time>2017-10-19T09:52:51Z</time>
      </trkpt>
      <trkpt lat="48.38347" lon="2.54361">
        <ele>111</ele>
        <time>2017-10-19T09:53:03Z</time>
      </trkpt>
      <trkpt lat="48.38352" lon="2.54335">
        <ele>110</ele>
        <time>2017-10-19T09:53:19Z</time>
      </trkpt>
      <trkpt lat="48.3836" lon="2.5431">
        <ele>107</ele>
        <time>2017-10-19T09:53:31Z</time>
      </trkpt>
      <trkpt lat="48.38372" lon="2.54287">
        <ele>107</ele>
        <time>2017-10-19T09:54:17Z</time>
      </trkpt>
      <trkpt lat="48.38393" lon="2.54289">
        <ele>108</ele>
        <time>2017-10-19T09:54:48Z</time>
      </trkpt>
      <trkpt lat="48.38404" lon="2.54265">
        <ele>108</ele>
        <time>2017-10-19T09:54:55Z</time>
      </trkpt>
      <trkpt lat="48.38406" lon="2.54237">
        <ele>105</ele>
        <time>2017-10-19T09:55:03Z</time>
      </trkpt>
      <trkpt lat="48.38408" lon="2.54206">
        <ele>103</ele>
        <time>2017-10-19T09:55:09Z</time>
      </trkpt>
      <trkpt lat="48.3843" lon="2.5418">
        <ele>108</ele>
        <time>2017-10-19T09:55:39Z</time>
      </trkpt>
      <trkpt lat="48.38445" lon="2.54163">
        <ele>109</ele>
        <time>2017-10-19T09:56:15Z</time>
      </trkpt>
      <trkpt lat="48.38456" lon="2.54141">
        <ele>111</ele>
        <time>2017-10-19T09:57:05Z</time>
      </trkpt>
      <trkpt lat="48.38446" lon="2.54117">
        <ele>111</ele>
        <time>2017-10-19T09:57:16Z</time>
      </trkpt>
      <trkpt lat="48.38441" lon="2.54089">
        <ele>110</ele>
        <time>2017-10-19T09:57:26Z</time>
      </trkpt>
      <trkpt lat="48.3845" lon="2.54055">
        <ele>113</ele>
        <time>2017-10-19T09:57:36Z</time>
      </trkpt>
      <trkpt lat="48.38435" lon="2.54039">
        <ele>111</ele>
        <time>2017-10-19T09:58:13Z</time>
      </trkpt>
      <trkpt lat="48.38437" lon="2.54012">
        <ele>111</ele>
        <time>2017-10-19T09:58:33Z</time>
      </trkpt>
      <trkpt lat="48.38452" lon="2.53994">
        <ele>112</ele>
        <time>2017-10-19T09:58:45Z</time>
      </trkpt>
      <trkpt lat="48.38456" lon="2.53966">
        <ele>112</ele>
        <time>2017-10-19T09:59:01Z</time>
      </trkpt>
      <trkpt lat="48.38457" lon="2.53937">
        <ele>111</ele>
        <time>2017-10-19T10:01:31Z</time>
      </trkpt>
      <trkpt lat="48.38452" lon="2.53909">
        <ele>108</ele>
        <time>2017-10-19T10:01:47Z</time>
      </trkpt>
      <trkpt lat="48.38469" lon="2.53896">
        <ele>110</ele>
        <time>2017-10-19T10:02:04Z</time>
      </trkpt>
      <trkpt lat="48.38473" lon="2.53867">
        <ele>110</ele>
        <time>2017-10-19T10:02:19Z</time>
      </trkpt>
      <trkpt lat="48.3848" lon="2.53842">
        <ele>111</ele>
        <time>2017-10-19T10:02:40Z</time>
      </trkpt>
      <trkpt lat="48.38498" lon="2.53828">
        <ele>113</ele>
        <time>2017-10-19T10:02:57Z</time>
      </trkpt>
      <trkpt lat="48.38518" lon="2.53825">
        <ele>114</ele>
        <time>2017-10-19T10:03:15Z</time>
      </trkpt>
      <trkpt lat="48.38536" lon="2.53832">
        <ele>114</ele>
        <time>2017-10-19T10:03:25Z</time>
      </trkpt>
      <trkpt lat="48.38554" lon="2.53819">
        <ele>114</ele>
        <time>2017-10-19T10:03:48Z</time>
      </trkpt>
      <trkpt lat="48.38573" lon="2.53812">
        <ele>114</ele>
        <time>2017-10-19T10:04:00Z</time>
      </trkpt>
      <trkpt lat="48.38584" lon="2.5379">
        <ele>113</ele>
        <time>2017-10-19T10:04:12Z</time>
      </trkpt>
      <trkpt lat="48.38599" lon="2.53775">
        <ele>112</ele>
        <time>2017-10-19T10:04:31Z</time>
      </trkpt>
      <trkpt lat="48.38611" lon="2.53755">
        <ele>112</ele>
        <time>2017-10-19T10:04:51Z</time>
      </trkpt>
      <trkpt lat="48.3863" lon="2.53748">
        <ele>106</ele>
        <time>2017-10-19T10:05:13Z</time>
      </trkpt>
      <trkpt lat="48.38649" lon="2.53729">
        <ele>105</ele>
        <time>2017-10-19T10:05:45Z</time>
      </trkpt>
      <trkpt lat="48.38667" lon="2.53726">
        <ele>105</ele>
        <time>2017-10-19T10:06:11Z</time>
      </trkpt>
      <trkpt lat="48.38667" lon="2.53697">
        <ele>102</ele>
        <time>2017-10-19T10:06:32Z</time>
      </trkpt>
      <trkpt lat="48.3868" lon="2.53678">
        <ele>101</ele>
        <time>2017-10-19T10:06:58Z</time>
      </trkpt>
      <trkpt lat="48.38696" lon="2.53661">
        <ele>98</ele>
        <time>2017-10-19T10:07:14Z</time>
      </trkpt>
      <trkpt lat="48.38712" lon="2.53647">
        <ele>99</ele>
        <time>2017-10-19T10:07:38Z</time>
      </trkpt>
      <trkpt lat="48.38728" lon="2.53632">
        <ele>99</ele>
        <time>2017-10-19T10:07:45Z</time>
      </trkpt>
      <trkpt lat="48.38759" lon="2.53645">
        <ele>106</ele>
        <time>2017-10-19T10:08:23Z</time>
      </trkpt>
      <trkpt lat="48.38777" lon="2.53644">
        <ele>107</ele>
        <time>2017-10-19T10:09:51Z</time>
      </trkpt>
      <trkpt lat="48.38795" lon="2.53634">
        <ele>109</ele>
        <time>2017-10-19T10:10:26Z</time>
      </trkpt>
      <trkpt lat="48.38814" lon="2.53637">
        <ele>110</ele>
        <time>2017-10-19T10:10:55Z</time>
      </trkpt>
      <trkpt lat="48.38825" lon="2.53658">
        <ele>115</ele>
        <time>2017-10-19T10:11:08Z</time>
      </trkpt>
      <trkpt lat="48.38845" lon="2.53668">
        <ele>120</ele>
        <time>2017-10-19T10:11:34Z</time>
      </trkpt>
      <trkpt lat="48.38864" lon="2.53657">
        <ele>117</ele>
        <time>2017-10-19T10:11:53Z</time>
      </trkpt>
      <trkpt lat="48.3888" lon="2.53644">
        <ele>117</ele>
        <time>2017-10-19T10:12:12Z</time>
      </trkpt>
      <trkpt lat="48.38899" lon="2.53642">
        <ele>118</ele>
        <time>2017-10-19T10:12:40Z</time>
      </trkpt>
      <trkpt lat="48.38908" lon="2.53618">
        <ele>116</ele>
        <time>2017-10-19T10:12:55Z</time>
      </trkpt>
      <trkpt lat="48.38924" lon="2.53601">
        <ele>116</ele>
        <time>2017-10-19T10:13:23Z</time>
      </trkpt>
      <trkpt lat="48.38945" lon="2.53597">
        <ele>117</ele>
        <time>2017-10-19T10:13:34Z</time>
      </trkpt>
      <trkpt lat="48.38961" lon="2.53584">
        <ele>118</ele>
        <time>2017-10-19T10:14:00Z</time>
      </trkpt>
      <trkpt lat="48.3897" lon="2.53558">
        <ele>112</ele>
        <time>2017-10-19T10:14:28Z</time>
      </trkpt>
      <trkpt lat="48.38987" lon="2.53544">
        <ele>112</ele>
        <time>2017-10-19T10:14:41Z</time>
      </trkpt>
      <trkpt lat="48.39005" lon="2.53543">
        <ele>118</ele>
        <time>2017-10-19T10:15:02Z</time>
      </trkpt>
      <trkpt lat="48.39016" lon="2.53522">
        <ele>117</ele>
        <time>2017-10-19T10:15:29Z</time>
      </trkpt>
      <trkpt lat="48.39026" lon="2.53498">
        <ele>116</ele>
        <time>2017-10-19T10:15:42Z</time>
      </trkpt>
      <trkpt lat="48.3904" lon="2.53481">
        <ele>117</ele>
        <time>2017-10-19T10:15:46Z</time>
      </trkpt>
      <trkpt lat="48.39045" lon="2.53454">
        <ele>117</ele>
        <time>2017-10-19T10:16:05Z</time>
      </trkpt>
      <trkpt lat="48.39035" lon="2.53425">
        <ele>115</ele>
        <time>2017-10-19T10:16:18Z</time>
      </trkpt>
      <trkpt lat="48.39025" lon="2.53401">
        <ele>113</ele>
        <time>2017-10-19T10:16:33Z</time>
      </trkpt>
      <trkpt lat="48.39021" lon="2.53373">
        <ele>112</ele>
        <time>2017-10-19T10:16:47Z</time>
      </trkpt>
      <trkpt lat="48.39018" lon="2.53346">
        <ele>111</ele>
        <time>2017-10-19T10:17:05Z</time>
      </trkpt>
      <trkpt lat="48.39025" lon="2.53318">
        <ele>111</ele>
        <time>2017-10-19T10:17:46Z</time>
      </trkpt>
      <trkpt lat="48.39009" lon="2.53303">
        <ele>110</ele>
        <time>2017-10-19T10:18:05Z</time>
      </trkpt>
      <trkpt lat="48.39004" lon="2.53277">
        <ele>110</ele>
        <time>2017-10-19T10:18:49Z</time>
      </trkpt>
      <trkpt lat="48.38988" lon="2.53261">
        <ele>103</ele>
        <time>2017-10-19T10:19:16Z</time>
      </trkpt>
      <trkpt lat="48.38976" lon="2.53239">
        <ele>102</ele>
        <time>2017-10-19T10:19:51Z</time>
      </trkpt>
      <trkpt lat="48.38963" lon="2.5322">
        <ele>100</ele>
        <time>2017-10-19T10:20:02Z</time>
      </trkpt>
      <trkpt lat="48.3895" lon="2.53199">
        <ele>99</ele>
        <time>2017-10-19T10:20:24Z</time>
      </trkpt>
      <trkpt lat="48.38942" lon="2.53172">
        <ele>98</ele>
        <time>2017-10-19T10:20:54Z</time>
      </trkpt>
      <trkpt lat="48.38945" lon="2.53143">
        <ele>95</ele>
        <time>2017-10-19T10:21:37Z</time>
      </trkpt>
      <trkpt lat="48.38938" lon="2.53118">
        <ele>94</ele>
        <time>2017-10-19T10:22:14Z</time>
      </trkpt>
      <trkpt lat="48.38933" lon="2.53088">
        <ele>91</ele>
        <time>2017-10-19T10:22:30Z</time>
      </trkpt>
      <trkpt lat="48.38919" lon="2.53067">
        <ele>89</ele>
        <time>2017-10-19T10:22:43Z</time>
      </trkpt>
      <trkpt lat="48.38904" lon="2.53049">
        <ele>90</ele>
        <time>2017-10-19T10:23:13Z</time>
      </trkpt>
      <trkpt lat="48.38888" lon="2.53033">
        <ele>91</ele>
        <time>2017-10-19T10:24:04Z</time>
      </trkpt>
      <trkpt lat="48.38874" lon="2.53014">
        <ele>91</ele>
        <time>2017-10-19T10:24:54Z</time>
      </trkpt>
      <trkpt lat="48.38878" lon="2.52986">
        <ele>95</ele>
        <time>2017-10-19T10:26:33Z</time>
      </trkpt>
      <trkpt lat="48.38893" lon="2.52964">
        <ele>96</ele>
        <time>2017-10-19T10:27:17Z</time>
      </trkpt>
      <trkpt lat="48.38904" lon="2.52935">
        <ele>97</ele>
        <time>2017-10-19T10:28:01Z</time>
      </trkpt>
      <trkpt lat="48.3892" lon="2.52922">
        <ele>96</ele>
        <time>2017-10-19T10:28:06Z</time>
      </trkpt>
      <trkpt lat="48.38936" lon="2.52906">
        <ele>100</ele>
        <time>2017-10-19T10:28:22Z</time>
      </trkpt>
      <trkpt lat="48.38954" lon="2.52901">
        <ele>100</ele>
        <time>2017-10-19T10:28:37Z</time>
      </trkpt>
      <trkpt lat="48.38975" lon="2.52895">
        <ele>100</ele>
        <time>2017-10-19T10:28:51Z</time>
      </trkpt>
      <trkpt lat="48.38992" lon="2.52883">
        <ele>101</ele>
        <time>2017-10-19T10:29:06Z</time>
      </trkpt>
      <trkpt lat="48.39009" lon="2.52875">
        <ele>105</ele>
        <time>2017-10-19T10:29:12Z</time>
      </trkpt>
      <trkpt lat="48.39019" lon="2.52852">
        <ele>107</ele>
        <time>2017-10-19T10:29:24Z</time>
      </trkpt>
      <trkpt lat="48.39033" lon="2.52832">
        <ele>113</ele>
        <time>2017-10-19T10:29:44Z</time>
      </trkpt>
      <trkpt lat="48.39041" lon="2.52808">
        <ele>114</ele>
        <time>2017-10-19T10:29:59Z</time>
      </trkpt>
      <trkpt lat="48.39034" lon="2.52781">
        <ele>115</ele>
        <time>2017-10-19T10:30:22Z</time>
      </trkpt>
      <trkpt lat="48.39033" lon="2.52753">
        <ele>116</ele>
        <time>2017-10-19T10:30:42Z</time>
      </trkpt>
      <trkpt lat="48.39021" lon="2.52731">
        <ele>118</ele>
        <time>2017-10-19T10:31:12Z</time>
      </trkpt>
      <trkpt lat="48.39021" lon="2.52702">
        <ele>118</ele>
        <time>2017-10-19T10:31:42Z</time>
      </trkpt>
      <trkpt lat="48.39018" lon="2.52673">
        <ele>118</ele>
        <time>2017-10-19T10:31:55Z</time>
      </trkpt>
      <trkpt lat="48.39018" lon="2.52645">
        <ele>118</ele>
        <time>2017-10-19T10:32:07Z</time>
      </trkpt>
      <trkpt lat="48.39017" lon="2.52615">
        <ele>118</ele>
        <time>2017-10-19T10:32:22Z</time>
      </trkpt>
      <trkpt lat="48.39022" lon="2.52588">
        <ele>118</ele>
        <time>2017-10-19T10:32:31Z</time>
      </trkpt>
      <trkpt lat="48.39031" lon="2.52562">
        <ele>118</ele>
        <time>2017-10-19T10:32:44Z</time>
      </trkpt>
      <trkpt lat="48.39044" lon="2.52543">
        <ele>118</ele>
        <time>2017-10-19T10:32:56Z</time>
      </trkpt>
      <trkpt lat="48.39036" lon="2.52489">
        <ele>116</ele>
        <time>2017-10-19T10:33:22Z</time>
      </trkpt>
      <trkpt lat="48.39032" lon="2.52461">
        <ele>115</ele>
        <time>2017-10-19T10:33:34Z</time>
      </trkpt>
      <trkpt lat="48.39026" lon="2.52434">
        <ele>114</ele>
        <time>2017-10-19T10:33:46Z</time>
      </trkpt>
      <trkpt lat="48.39044" lon="2.52426">
        <ele>115</ele>
        <time>2017-10-19T10:34:06Z</time>
      </trkpt>
      <trkpt lat="48.39059" lon="2.52407">
        <ele>112</ele>
        <time>2017-10-19T10:34:19Z</time>
      </trkpt>
      <trkpt lat="48.39069" lon="2.52383">
        <ele>111</ele>
        <time>2017-10-19T10:34:31Z</time>
      </trkpt>
      <trkpt lat="48.39088" lon="2.52376">
        <ele>113</ele>
        <time>2017-10-19T10:34:50Z</time>
      </trkpt>
      <trkpt lat="48.39107" lon="2.52385">
        <ele>113</ele>
        <time>2017-10-19T10:35:01Z</time>
      </trkpt>
      <trkpt lat="48.39126" lon="2.52391">
        <ele>114</ele>
        <time>2017-10-19T10:35:13Z</time>
      </trkpt>
      <trkpt lat="48.39145" lon="2.5239">
        <ele>114</ele>
        <time>2017-10-19T10:35:24Z</time>
      </trkpt>
      <trkpt lat="48.39163" lon="2.52391">
        <ele>114</ele>
        <time>2017-10-19T10:35:36Z</time>
      </trkpt>
      <trkpt lat="48.39184" lon="2.52374">
        <ele>108</ele>
        <time>2017-10-19T10:35:44Z</time>
      </trkpt>
      <trkpt lat="48.3919" lon="2.52347">
        <ele>107</ele>
        <time>2017-10-19T10:36:01Z</time>
      </trkpt>
      <trkpt lat="48.39208" lon="2.52338">
        <ele>105</ele>
        <time>2017-10-19T10:36:25Z</time>
      </trkpt>
      <trkpt lat="48.39227" lon="2.52332">
        <ele>98</ele>
        <time>2017-10-19T10:36:29Z</time>
      </trkpt>
      <trkpt lat="48.39246" lon="2.52326">
        <ele>97</ele>
        <time>2017-10-19T10:36:40Z</time>
      </trkpt>
      <trkpt lat="48.39241" lon="2.52299">
        <ele>96</ele>
        <time>2017-10-19T10:36:49Z</time>
      </trkpt>
      <trkpt lat="48.39249" lon="2.52272">
        <ele>94</ele>
        <time>2017-10-19T10:37:25Z</time>
      </trkpt>
      <trkpt lat="48.39245" lon="2.52244">
        <ele>90</ele>
        <time>2017-10-19T10:37:49Z</time>
      </trkpt>
      <trkpt lat="48.39259" lon="2.52227">
        <ele>93</ele>
        <time>2017-10-19T10:38:13Z</time>
      </trkpt>
      <trkpt lat="48.39277" lon="2.52223">
        <ele>94</ele>
        <time>2017-10-19T10:38:52Z</time>
      </trkpt>
      <trkpt lat="48.39296" lon="2.52229">
        <ele>96</ele>
        <time>2017-10-19T10:39:17Z</time>
      </trkpt>
      <trkpt lat="48.39312" lon="2.52215">
        <ele>97</ele>
        <time>2017-10-19T10:39:48Z</time>
      </trkpt>
      <trkpt lat="48.39323" lon="2.5219">
        <ele>98</ele>
        <time>2017-10-19T10:40:04Z</time>
      </trkpt>
      <trkpt lat="48.39335" lon="2.52168">
        <ele>103</ele>
        <time>2017-10-19T10:40:25Z</time>
      </trkpt>
      <trkpt lat="48.39348" lon="2.52149">
        <ele>107</ele>
        <time>2017-10-19T10:40:37Z</time>
      </trkpt>
      <trkpt lat="48.39362" lon="2.52127">
        <ele>108</ele>
        <time>2017-10-19T10:41:17Z</time>
      </trkpt>
      <trkpt lat="48.39377" lon="2.52109">
        <ele>109</ele>
        <time>2017-10-19T10:41:31Z</time>
      </trkpt>
      <trkpt lat="48.39387" lon="2.52085">
        <ele>110</ele>
        <time>2017-10-19T10:41:43Z</time>
      </trkpt>
      <trkpt lat="48.39401" lon="2.52066">
        <ele>111</ele>
        <time>2017-10-19T10:42:03Z</time>
      </trkpt>
      <trkpt lat="48.39409" lon="2.52038">
        <ele>111</ele>
        <time>2017-10-19T10:42:22Z</time>
      </trkpt>
      <trkpt lat="48.39405" lon="2.52005">
        <ele>111</ele>
        <time>2017-10-19T10:42:27Z</time>
      </trkpt>
      <trkpt lat="48.39395" lon="2.51979">
        <ele>110</ele>
        <time>2017-10-19T10:42:32Z</time>
      </trkpt>
      <trkpt lat="48.394" lon="2.51952">
        <ele>109</ele>
        <time>2017-10-19T10:42:47Z</time>
      </trkpt>
      <trkpt lat="48.39409" lon="2.51928">
        <ele>110</ele>
        <time>2017-10-19T10:42:59Z</time>
      </trkpt>
      <trkpt lat="48.39411" lon="2.51899">
        <ele>110</ele>
        <time>2017-10-19T10:43:11Z</time>
      </trkpt>
      <trkpt lat="48.3942" lon="2.51871">
        <ele>108</ele>
        <time>2017-10-19T10:43:20Z</time>
      </trkpt>
      <trkpt lat="48.39423" lon="2.51844">
        <ele>108</ele>
        <time>2017-10-19T10:43:35Z</time>
      </trkpt>
      <trkpt lat="48.39422" lon="2.51816">
        <ele>105</ele>
        <time>2017-10-19T10:51:51Z</time>
      </trkpt>
      <trkpt lat="48.39426" lon="2.51789">
        <ele>103</ele>
        <time>2017-10-19T10:52:02Z</time>
      </trkpt>
      <trkpt lat="48.39437" lon="2.51766">
        <ele>101</ele>
        <time>2017-10-19T10:52:20Z</time>
      </trkpt>
      <trkpt lat="48.39443" lon="2.51739">
        <ele>99</ele>
        <time>2017-10-19T10:52:41Z</time>
      </trkpt>
      <trkpt lat="48.39451" lon="2.51713">
        <ele>98</ele>
        <time>2017-10-19T10:52:56Z</time>
      </trkpt>
      <trkpt lat="48.39459" lon="2.51687">
        <ele>98</ele>
        <time>2017-10-19T10:53:22Z</time>
      </trkpt>
      <trkpt lat="48.39447" lon="2.51667">
        <ele>99</ele>
        <time>2017-10-19T10:53:44Z</time>
      </trkpt>
      <trkpt lat="48.39429" lon="2.51666">
        <ele>100</ele>
        <time>2017-10-19T10:54:03Z</time>
      </trkpt>
      <trkpt lat="48.39424" lon="2.51637">
        <ele>99</ele>
        <time>2017-10-19T10:54:23Z</time>
      </trkpt>
      <trkpt lat="48.39426" lon="2.51664">
        <ele>100</ele>
        <time>2017-10-19T10:55:53Z</time>
      </trkpt>
      <trkpt lat="48.39443" lon="2.51679">
        <ele>99</ele>
        <time>2017-10-19T10:56:18Z</time>
      </trkpt>
      <trkpt lat="48.3946" lon="2.51691">
        <ele>98</ele>
        <time>2017-10-19T10:56:26Z</time>
      </trkpt>
      <trkpt lat="48.3945" lon="2.51713">
        <ele>99</ele>
        <time>2017-10-19T10:56:40Z</time>
      </trkpt>
      <trkpt lat="48.39428" lon="2.51719">
        <ele>99</ele>
        <time>2017-10-19T10:56:49Z</time>
      </trkpt>
      <trkpt lat="48.39408" lon="2.51732">
        <ele>101</ele>
        <time>2017-10-19T10:56:58Z</time>
      </trkpt>
      <trkpt lat="48.39397" lon="2.51753">
        <ele>104</ele>
        <time>2017-10-19T10:57:05Z</time>
      </trkpt>
      <trkpt lat="48.39391" lon="2.51781">
        <ele>105</ele>
        <time>2017-10-19T10:57:22Z</time>
      </trkpt>
      <trkpt lat="48.39376" lon="2.51802">
        <ele>107</ele>
        <time>2017-10-19T10:57:40Z</time>
      </trkpt>
      <trkpt lat="48.39365" lon="2.51826">
        <ele>108</ele>
        <time>2017-10-19T10:57:54Z</time>
      </trkpt>
      <trkpt lat="48.39359" lon="2.51853">
        <ele>109</ele>
        <time>2017-10-19T10:58:06Z</time>
      </trkpt>
      <trkpt lat="48.39353" lon="2.5188">
        <ele>109</ele>
        <time>2017-10-19T10:58:13Z</time>
      </trkpt>
      <trkpt lat="48.39338" lon="2.51896">
        <ele>108</ele>
        <time>2017-10-19T10:58:21Z</time>
      </trkpt>
      <trkpt lat="48.39319" lon="2.51897">
        <ele>107</ele>
        <time>2017-10-19T10:58:28Z</time>
      </trkpt>
      <trkpt lat="48.39303" lon="2.51915">
        <ele>107</ele>
        <time>2017-10-19T10:58:35Z</time>
      </trkpt>
      <trkpt lat="48.39286" lon="2.51932">
        <ele>103</ele>
        <time>2017-10-19T10:58:43Z</time>
      </trkpt>
      <trkpt lat="48.39273" lon="2.51953">
        <ele>102</ele>
        <time>2017-10-19T10:58:50Z</time>
      </trkpt>
      <trkpt lat="48.39262" lon="2.51979">
        <ele>100</ele>
        <time>2017-10-19T10:58:58Z</time>
      </trkpt>
      <trkpt lat="48.39254" lon="2.52007">
        <ele>95</ele>
        <time>2017-10-19T10:59:05Z</time>
      </trkpt>
      <trkpt lat="48.39245" lon="2.52033">
        <ele>89</ele>
        <time>2017-10-19T10:59:11Z</time>
      </trkpt>
      <trkpt lat="48.39235" lon="2.52056">
        <ele>88</ele>
        <time>2017-10-19T10:59:17Z</time>
      </trkpt>
      <trkpt lat="48.3922" lon="2.52075">
        <ele>87</ele>
        <time>2017-10-19T10:59:25Z</time>
      </trkpt>
      <trkpt lat="48.39205" lon="2.52093">
        <ele>85</ele>
        <time>2017-10-19T10:59:31Z</time>
      </trkpt>
      <trkpt lat="48.39191" lon="2.5211">
        <ele>84</ele>
        <time>2017-10-19T10:59:38Z</time>
      </trkpt>
      <trkpt lat="48.39172" lon="2.5211">
        <ele>83</ele>
        <time>2017-10-19T10:59:45Z</time>
      </trkpt>
      <trkpt lat="48.39155" lon="2.52093">
        <ele>80</ele>
        <time>2017-10-19T10:59:54Z</time>
      </trkpt>
      <trkpt lat="48.39136" lon="2.52083">
        <ele>79</ele>
        <time>2017-10-19T11:00:02Z</time>
      </trkpt>
      <trkpt lat="48.39119" lon="2.52074">
        <ele>78</ele>
        <time>2017-10-19T11:00:14Z</time>
      </trkpt>
      <trkpt lat="48.391" lon="2.52071">
        <ele>78</ele>
        <time>2017-10-19T11:00:26Z</time>
      </trkpt>
      <trkpt lat="48.39082" lon="2.5207">
        <ele>77</ele>
        <time>2017-10-19T11:00:36Z</time>
      </trkpt>
      <trkpt lat="48.39063" lon="2.52067">
        <ele>78</ele>
        <time>2017-10-19T11:00:50Z</time>
      </trkpt>
      <trkpt lat="48.39045" lon="2.52061">
        <ele>78</ele>
        <time>2017-10-19T11:01:02Z</time>
      </trkpt>
      <trkpt lat="48.39027" lon="2.5205">
        <ele>78</ele>
        <time>2017-10-19T11:01:14Z</time>
      </trkpt>
      <trkpt lat="48.39008" lon="2.52051">
        <ele>78</ele>
        <time>2017-10-19T11:01:26Z</time>
      </trkpt>
      <trkpt lat="48.38992" lon="2.52064">
        <ele>80</ele>
        <time>2017-10-19T11:01:40Z</time>
      </trkpt>
      <trkpt lat="48.38978" lon="2.52082">
        <ele>80</ele>
        <time>2017-10-19T11:01:55Z</time>
      </trkpt>
      <trkpt lat="48.38975" lon="2.52109">
        <ele>84</ele>
        <time>2017-10-19T11:02:08Z</time>
      </trkpt>
      <trkpt lat="48.38964" lon="2.52131">
        <ele>86</ele>
        <time>2017-10-19T11:02:25Z</time>
      </trkpt>
      <trkpt lat="48.38951" lon="2.52152">
        <ele>87</ele>
        <time>2017-10-19T11:02:47Z</time>
      </trkpt>
      <trkpt lat="48.3894" lon="2.52173">
        <ele>94</ele>
        <time>2017-10-19T11:03:11Z</time>
      </trkpt>
      <trkpt lat="48.38933" lon="2.52198">
        <ele>96</ele>
        <time>2017-10-19T11:03:32Z</time>
      </trkpt>
      <trkpt lat="48.38936" lon="2.52226">
        <ele>99</ele>
        <time>2017-10-19T11:04:22Z</time>
      </trkpt>
      <trkpt lat="48.38938" lon="2.52254">
        <ele>106</ele>
        <time>2017-10-19T11:05:01Z</time>
      </trkpt>
      <trkpt lat="48.38922" lon="2.52268">
        <ele>106</ele>
        <time>2017-10-19T11:05:37Z</time>
      </trkpt>
      <trkpt lat="48.38906" lon="2.5228">
        <ele>107</ele>
        <time>2017-10-19T11:05:48Z</time>
      </trkpt>
      <trkpt lat="48.38889" lon="2.52289">
        <ele>106</ele>
        <time>2017-10-19T11:06:07Z</time>
      </trkpt>
      <trkpt lat="48.3887" lon="2.5228">
        <ele>105</ele>
        <time>2017-10-19T11:06:27Z</time>
      </trkpt>
      <trkpt lat="48.38853" lon="2.52269">
        <ele>104</ele>
        <time>2017-10-19T11:07:05Z</time>
      </trkpt>
      <trkpt lat="48.38836" lon="2.52279">
        <ele>103</ele>
        <time>2017-10-19T11:07:29Z</time>
      </trkpt>
      <trkpt lat="48.38818" lon="2.5228">
        <ele>95</ele>
        <time>2017-10-19T11:07:52Z</time>
      </trkpt>
      <trkpt lat="48.388" lon="2.52271">
        <ele>93</ele>
        <time>2017-10-19T11:08:08Z</time>
      </trkpt>
      <trkpt lat="48.38782" lon="2.52275">
        <ele>91</ele>
        <time>2017-10-19T11:08:23Z</time>
      </trkpt>
      <trkpt lat="48.38764" lon="2.52279">
        <ele>90</ele>
        <time>2017-10-19T11:08:34Z</time>
      </trkpt>
      <trkpt lat="48.38748" lon="2.52298">
        <ele>83</ele>
        <time>2017-10-19T11:08:46Z</time>
      </trkpt>
      <trkpt lat="48.38737" lon="2.52322">
        <ele>83</ele>
        <time>2017-10-19T11:09:01Z</time>
      </trkpt>
      <trkpt lat="48.3872" lon="2.52329">
        <ele>82</ele>
        <time>2017-10-19T11:09:15Z</time>
      </trkpt>
      <trkpt lat="48.38701" lon="2.5233">
        <ele>81</ele>
        <time>2017-10-19T11:09:29Z</time>
      </trkpt>
      <trkpt lat="48.38684" lon="2.5232">
        <ele>81</ele>
        <time>2017-10-19T11:09:39Z</time>
      </trkpt>
      <trkpt lat="48.38667" lon="2.52313">
        <ele>80</ele>
        <time>2017-10-19T11:09:49Z</time>
      </trkpt>
      <trkpt lat="48.38647" lon="2.52317">
        <ele>81</ele>
        <time>2017-10-19T11:10:01Z</time>
      </trkpt>
      <trkpt lat="48.38629" lon="2.52312">
        <ele>82</ele>
        <time>2017-10-19T11:10:24Z</time>
      </trkpt>
      <trkpt lat="48.38612" lon="2.52321">
        <ele>84</ele>
        <time>2017-10-19T11:10:52Z</time>
      </trkpt>
      <trkpt lat="48.38593" lon="2.52316">
        <ele>85</ele>
        <time>2017-10-19T11:11:31Z</time>
      </trkpt>
      <trkpt lat="48.38575" lon="2.52307">
        <ele>92</ele>
        <time>2017-10-19T11:11:50Z</time>
      </trkpt>
      <trkpt lat="48.38557" lon="2.52313">
        <ele>93</ele>
        <time>2017-10-19T11:12:24Z</time>
      </trkpt>
      <trkpt lat="48.38542" lon="2.52298">
        <ele>95</ele>
        <time>2017-10-19T11:12:56Z</time>
      </trkpt>
      <trkpt lat="48.38524" lon="2.523">
        <ele>97</ele>
        <time>2017-10-19T11:13:12Z</time>
      </trkpt>
      <trkpt lat="48.38508" lon="2.52312">
        <ele>99</ele>
        <time>2017-10-19T11:14:26Z</time>
      </trkpt>
      <trkpt lat="48.38488" lon="2.52321">
        <ele>103</ele>
        <time>2017-10-19T11:14:44Z</time>
      </trkpt>
      <trkpt lat="48.38469" lon="2.52318">
        <ele>101</ele>
        <time>2017-10-19T11:15:20Z</time>
      </trkpt>
      <trkpt lat="48.38451" lon="2.52314">
        <ele>99</ele>
        <time>2017-10-19T11:15:53Z</time>
      </trkpt>
      <trkpt lat="48.38438" lon="2.52295">
        <ele>99</ele>
        <time>2017-10-19T11:16:16Z</time>
      </trkpt>
      <trkpt lat="48.38421" lon="2.52308">
        <ele>97</ele>
        <time>2017-10-19T11:17:20Z</time>
      </trkpt>
      <trkpt lat="48.38414" lon="2.52281">
        <ele>96</ele>
        <time>2017-10-19T11:17:52Z</time>
      </trkpt>
      <trkpt lat="48.38397" lon="2.52272">
        <ele>96</ele>
        <time>2017-10-19T11:18:22Z</time>
      </trkpt>
      <trkpt lat="48.38395" lon="2.52238">
        <ele>101</ele>
        <time>2017-10-19T11:20:49Z</time>
      </trkpt>
      <trkpt lat="48.38391" lon="2.52209">
        <ele>102</ele>
        <time>2017-10-19T11:21:09Z</time>
      </trkpt>
      <trkpt lat="48.38375" lon="2.52194">
        <ele>102</ele>
        <time>2017-10-19T11:21:45Z</time>
      </trkpt>
      <trkpt lat="48.38366" lon="2.52169">
        <ele>102</ele>
        <time>2017-10-19T11:22:28Z</time>
      </trkpt>
      <trkpt lat="48.38373" lon="2.52143">
        <ele>101</ele>
        <time>2017-10-19T11:22:39Z</time>
      </trkpt>
      <trkpt lat="48.38382" lon="2.5212">
        <ele>101</ele>
        <time>2017-10-19T11:22:54Z</time>
      </trkpt>
      <trkpt lat="48.38394" lon="2.52099">
        <ele>101</ele>
        <time>2017-10-19T11:23:50Z</time>
      </trkpt>
      <trkpt lat="48.38404" lon="2.52075">
        <ele>97</ele>
        <time>2017-10-19T11:24:30Z</time>
      </trkpt>
      <trkpt lat="48.38421" lon="2.52056">
        <ele>96</ele>
        <time>2017-10-19T11:24:41Z</time>
      </trkpt>
      <trkpt lat="48.38437" lon="2.52041">
        <ele>94</ele>
        <time>2017-10-19T11:25:02Z</time>
      </trkpt>
      <trkpt lat="48.38447" lon="2.52015">
        <ele>93</ele>
        <time>2017-10-19T11:25:18Z</time>
      </trkpt>
      <trkpt lat="48.38453" lon="2.51989">
        <ele>92</ele>
        <time>2017-10-19T11:25:39Z</time>
      </trkpt>
      <trkpt lat="48.3846" lon="2.51963">
        <ele>92</ele>
        <time>2017-10-19T11:25:46Z</time>
      </trkpt>
      <trkpt lat="48.38472" lon="2.51942">
        <ele>92</ele>
        <time>2017-10-19T11:26:21Z</time>
      </trkpt>
      <trkpt lat="48.38473" lon="2.51913">
        <ele>91</ele>
        <time>2017-10-19T11:27:15Z</time>
      </trkpt>
      <trkpt lat="48.3848" lon="2.51887">
        <ele>90</ele>
        <time>2017-10-19T11:27:22Z</time>
      </trkpt>
      <trkpt lat="48.38473" lon="2.51862">
        <ele>89</ele>
        <time>2017-10-19T11:27:39Z</time>
      </trkpt>
      <trkpt lat="48.38462" lon="2.51838">
        <ele>88</ele>
        <time>2017-10-19T11:27:59Z</time>
      </trkpt>
      <trkpt lat="48.38444" lon="2.51827">
        <ele>85</ele>
        <time>2017-10-19T11:28:23Z</time>
      </trkpt>
      <trkpt lat="48.38429" lon="2.51811">
        <ele>84</ele>
        <time>2017-10-19T11:28:51Z</time>
      </trkpt>
      <trkpt lat="48.38412" lon="2.51798">
        <ele>87</ele>
        <time>2017-10-19T11:29:03Z</time>
      </trkpt>
      <trkpt lat="48.38397" lon="2.5178">
        <ele>88</ele>
        <time>2017-10-19T11:29:51Z</time>
      </trkpt>
      <trkpt lat="48.38378" lon="2.5177">
        <ele>89</ele>
        <time>2017-10-19T11:30:39Z</time>
      </trkpt>
      <trkpt lat="48.3836" lon="2.51774">
        <ele>91</ele>
        <time>2017-10-19T11:31:21Z</time>
      </trkpt>
      <trkpt lat="48.38342" lon="2.51768">
        <ele>94</ele>
        <time>2017-10-19T11:32:04Z</time>
      </trkpt>
      <trkpt lat="48.3833" lon="2.51747">
        <ele>99</ele>
        <time>2017-10-19T11:32:45Z</time>
      </trkpt>
      <trkpt lat="48.38314" lon="2.51736">
        <ele>97</ele>
        <time>2017-10-19T11:33:46Z</time>
      </trkpt>
      <trkpt lat="48.38296" lon="2.51733">
        <ele>96</ele>
        <time>2017-10-19T11:34:45Z</time>
      </trkpt>
      <trkpt lat="48.383" lon="2.51705">
        <ele>95</ele>
        <time>2017-10-19T11:35:45Z</time>
      </trkpt>
      <trkpt lat="48.38303" lon="2.51676">
        <ele>95</ele>
        <time>2017-10-19T11:35:54Z</time>
      </trkpt>
      <trkpt lat="48.38318" lon="2.51661">
        <ele>94</ele>
        <time>2017-10-19T11:37:11Z</time>
      </trkpt>
      <trkpt lat="48.38316" lon="2.51632">
        <ele>91</ele>
        <time>2017-10-19T11:38:12Z</time>
      </trkpt>
      <trkpt lat="48.38323" lon="2.51604">
        <ele>90</ele>
        <time>2017-10-19T11:38:40Z</time>
      </trkpt>
      <trkpt lat="48.38329" lon="2.51574">
        <ele>89</ele>
        <time>2017-10-19T11:38:50Z</time>
      </trkpt>
      <trkpt lat="48.38337" lon="2.51546">
        <ele>89</ele>
        <time>2017-10-19T11:39:27Z</time>
      </trkpt>
      <trkpt lat="48.38339" lon="2.51516">
        <ele>91</ele>
        <time>2017-10-19T11:39:56Z</time>
      </trkpt>
      <trkpt lat="48.38349" lon="2.51491">
        <ele>92</ele>
        <time>2017-10-19T11:40:10Z</time>
      </trkpt>
      <trkpt lat="48.38342" lon="2.51464">
        <ele>91</ele>
        <time>2017-10-19T11:40:28Z</time>
      </trkpt>
      <trkpt lat="48.38339" lon="2.51436">
        <ele>91</ele>
        <time>2017-10-19T11:40:35Z</time>
      </trkpt>
      <trkpt lat="48.38331" lon="2.51408">
        <ele>89</ele>
        <time>2017-10-19T11:40:52Z</time>
      </trkpt>
      <trkpt lat="48.38315" lon="2.51394">
        <ele>86</ele>
        <time>2017-10-19T11:41:11Z</time>
      </trkpt>
      <trkpt lat="48.383" lon="2.51378">
        <ele>84</ele>
        <time>2017-10-19T11:41:33Z</time>
      </trkpt>
      <trkpt lat="48.3829" lon="2.51349">
        <ele>83</ele>
        <time>2017-10-19T11:41:49Z</time>
      </trkpt>
      <trkpt lat="48.3828" lon="2.51326">
        <ele>82</ele>
        <time>2017-10-19T11:42:04Z</time>
      </trkpt>
      <trkpt lat="48.38268" lon="2.51303">
        <ele>82</ele>
        <time>2017-10-19T11:42:19Z</time>
      </trkpt>
      <trkpt lat="48.38254" lon="2.51286">
        <ele>82</ele>
        <time>2017-10-19T11:42:37Z</time>
      </trkpt>
      <trkpt lat="48.38239" lon="2.51269">
        <ele>86</ele>
        <time>2017-10-19T11:42:57Z</time>
      </trkpt>
      <trkpt lat="48.38222" lon="2.51258">
        <ele>88</ele>
        <time>2017-10-19T11:43:47Z</time>
      </trkpt>
      <trkpt lat="48.38203" lon="2.51254">
        <ele>91</ele>
        <time>2017-10-19T11:44:44Z</time>
      </trkpt>
      <trkpt lat="48.38185" lon="2.51248">
        <ele>94</ele>
        <time>2017-10-19T11:45:08Z</time>
      </trkpt>
      <trkpt lat="48.38167" lon="2.51254">
        <ele>99</ele>
        <time>2017-10-19T11:46:13Z</time>
      </trkpt>
      <trkpt lat="48.38149" lon="2.5125">
        <ele>96</ele>
        <time>2017-10-19T11:47:00Z</time>
      </trkpt>
      <trkpt lat="48.38129" lon="2.51247">
        <ele>96</ele>
        <time>2017-10-19T11:47:22Z</time>
      </trkpt>
      <trkpt lat="48.3811" lon="2.51253">
        <ele>92</ele>
        <time>2017-10-19T11:48:38Z</time>
      </trkpt>
      <trkpt lat="48.3809" lon="2.51247">
        <ele>94</ele>
        <time>2017-10-19T11:49:37Z</time>
      </trkpt>
      <trkpt lat="48.38075" lon="2.51228">
        <ele>90</ele>
        <time>2017-10-19T11:50:17Z</time>
      </trkpt>
      <trkpt lat="48.3806" lon="2.51213">
        <ele>89</ele>
        <time>2017-10-19T11:50:36Z</time>
      </trkpt>
      <trkpt lat="48.38061" lon="2.51184">
        <ele>91</ele>
        <time>2017-10-19T11:50:53Z</time>
      </trkpt>
      <trkpt lat="48.3805" lon="2.51162">
        <ele>93</ele>
        <time>2017-10-19T11:51:18Z</time>
      </trkpt>
      <trkpt lat="48.38035" lon="2.51139">
        <ele>92</ele>
        <time>2017-10-19T11:51:42Z</time>
      </trkpt>
      <trkpt lat="48.38022" lon="2.5112">
        <ele>92</ele>
        <time>2017-10-19T11:51:55Z</time>
      </trkpt>
      <trkpt lat="48.38033" lon="2.51142">
        <ele>91</ele>
        <time>2017-10-19T11:52:22Z</time>
      </trkpt>
      <trkpt lat="48.38016" lon="2.51133">
        <ele>91</ele>
        <time>2017-10-19T11:52:52Z</time>
      </trkpt>
      <trkpt lat="48.38009" lon="2.51107">
        <ele>92</ele>
        <time>2017-10-19T11:53:24Z</time>
      </trkpt>
      <trkpt lat="48.37994" lon="2.51091">
        <ele>90</ele>
        <time>2017-10-19T11:53:58Z</time>
      </trkpt>
      <trkpt lat="48.37975" lon="2.51087">
        <ele>86</ele>
        <time>2017-10-19T11:54:30Z</time>
      </trkpt>
      <trkpt lat="48.37957" lon="2.5108">
        <ele>85</ele>
        <time>2017-10-19T11:54:56Z</time>
      </trkpt>
      <trkpt lat="48.3794" lon="2.51085">
        <ele>81</ele>
        <time>2017-10-19T11:55:33Z</time>
      </trkpt>
      <trkpt lat="48.37922" lon="2.51086">
        <ele>78</ele>
        <time>2017-10-19T11:55:58Z</time>
      </trkpt>
      <trkpt lat="48.37904" lon="2.51084">
        <ele>76</ele>
        <time>2017-10-19T11:56:24Z</time>
      </trkpt>
      <trkpt lat="48.37885" lon="2.51091">
        <ele>75</ele>
        <time>2017-10-19T11:56:37Z</time>
      </trkpt>
      <trkpt lat="48.37876" lon="2.51119">
        <ele>75</ele>
        <time>2017-10-19T11:57:00Z</time>
      </trkpt>
      <trkpt lat="48.37866" lon="2.51145">
        <ele>74</ele>
        <time>2017-10-19T11:57:07Z</time>
      </trkpt>
      <trkpt lat="48.37854" lon="2.51167">
        <ele>74</ele>
        <time>2017-10-19T11:57:15Z</time>
      </trkpt>
      <trkpt lat="48.37842" lon="2.5119">
        <ele>73</ele>
        <time>2017-10-19T11:57:20Z</time>
      </trkpt>
      <trkpt lat="48.37825" lon="2.51201">
        <ele>73</ele>
        <time>2017-10-19T11:57:27Z</time>
      </trkpt>
      <trkpt lat="48.37806" lon="2.5121">
        <ele>74</ele>
        <time>2017-10-19T11:57:34Z</time>
      </trkpt>
      <trkpt lat="48.3779" lon="2.51224">
        <ele>74</ele>
        <time>2017-10-19T11:57:39Z</time>
      </trkpt>
      <trkpt lat="48.37772" lon="2.51234">
        <ele>74</ele>
        <time>2017-10-19T11:57:48Z</time>
      </trkpt>
      <trkpt lat="48.37763" lon="2.51258">
        <ele>74</ele>
        <time>2017-10-19T11:58:00Z</time>
      </trkpt>
      <trkpt lat="48.37756" lon="2.51285">
        <ele>73</ele>
        <time>2017-10-19T11:58:17Z</time>
      </trkpt>
      <trkpt lat="48.37747" lon="2.5131">
        <ele>74</ele>
        <time>2017-10-19T11:58:30Z</time>
      </trkpt>
      <trkpt lat="48.37729" lon="2.51309">
        <ele>74</ele>
        <time>2017-10-19T11:58:45Z</time>
      </trkpt>
      <trkpt lat="48.3771" lon="2.51302">
        <ele>74</ele>
        <time>2017-10-19T11:59:05Z</time>
      </trkpt>
      <trkpt lat="48.37696" lon="2.51281">
        <ele>74</ele>
        <time>2017-10-19T11:59:21Z</time>
      </trkpt>
      <trkpt lat="48.3768" lon="2.51267">
        <ele>74</ele>
        <time>2017-10-19T11:59:32Z</time>
      </trkpt>
      <trkpt lat="48.37661" lon="2.51271">
        <ele>74</ele>
        <time>2017-10-19T11:59:43Z</time>
      </trkpt>
      <trkpt lat="48.37642" lon="2.51275">
        <ele>74</ele>
        <time>2017-10-19T11:59:54Z</time>
      </trkpt>
      <trkpt lat="48.37624" lon="2.51278">
        <ele>74</ele>
        <time>2017-10-19T12:00:06Z</time>
      </trkpt>
      <trkpt lat="48.37605" lon="2.51275">
        <ele>74</ele>
        <time>2017-10-19T12:00:18Z</time>
      </trkpt>
      <trkpt lat="48.37587" lon="2.5128">
        <ele>74</ele>
        <time>2017-10-19T12:00:31Z</time>
      </trkpt>
      <trkpt lat="48.37577" lon="2.51309">
        <ele>75</ele>
        <time>2017-10-19T12:00:44Z</time>
      </trkpt>
      <trkpt lat="48.37569" lon="2.51338">
        <ele>76</ele>
        <time>2017-10-19T12:00:56Z</time>
      </trkpt>
      <trkpt lat="48.3756" lon="2.51363">
        <ele>77</ele>
        <time>2017-10-19T12:01:08Z</time>
      </trkpt>
      <trkpt lat="48.37546" lon="2.51383">
        <ele>77</ele>
        <time>2017-10-19T12:01:19Z</time>
      </trkpt>
      <trkpt lat="48.37528" lon="2.51379">
        <ele>78</ele>
        <time>2017-10-19T12:01:35Z</time>
      </trkpt>
      <trkpt lat="48.37524" lon="2.51405">
        <ele>79</ele>
        <time>2017-10-19T12:01:55Z</time>
      </trkpt>
      <trkpt lat="48.37508" lon="2.51418">
        <ele>81</ele>
        <time>2017-10-19T12:02:11Z</time>
      </trkpt>
      <trkpt lat="48.37489" lon="2.51428">
        <ele>83</ele>
        <time>2017-10-19T12:02:38Z</time>
      </trkpt>
      <trkpt lat="48.37472" lon="2.51437">
        <ele>84</ele>
        <time>2017-10-19T12:02:50Z</time>
      </trkpt>
      <trkpt lat="48.37453" lon="2.51442">
        <ele>85</ele>
        <time>2017-10-19T12:03:00Z</time>
      </trkpt>
      <trkpt lat="48.37435" lon="2.51444">
        <ele>85</ele>
        <time>2017-10-19T12:03:14Z</time>
      </trkpt>
      <trkpt lat="48.37426" lon="2.51468">
        <ele>86</ele>
        <time>2017-10-19T12:03:27Z</time>
      </trkpt>
      <trkpt lat="48.37415" lon="2.51491">
        <ele>89</ele>
        <time>2017-10-19T12:03:39Z</time>
      </trkpt>
      <trkpt lat="48.374" lon="2.51508">
        <ele>94</ele>
        <time>2017-10-19T12:03:51Z</time>
      </trkpt>
      <trkpt lat="48.374" lon="2.51538">
        <ele>97</ele>
        <time>2017-10-19T12:04:08Z</time>
      </trkpt>
      <trkpt lat="48.37403" lon="2.51565">
        <ele>98</ele>
        <time>2017-10-19T12:04:22Z</time>
      </trkpt>
      <trkpt lat="48.37409" lon="2.51593">
        <ele>100</ele>
        <time>2017-10-19T12:04:34Z</time>
      </trkpt>
      <trkpt lat="48.37425" lon="2.51612">
        <ele>98</ele>
        <time>2017-10-19T12:04:46Z</time>
      </trkpt>
      <trkpt lat="48.37439" lon="2.51632">
        <ele>99</ele>
        <time>2017-10-19T12:04:58Z</time>
      </trkpt>
      <trkpt lat="48.37456" lon="2.51642">
        <ele>98</ele>
        <time>2017-10-19T12:05:09Z</time>
      </trkpt>
      <trkpt lat="48.37471" lon="2.51659">
        <ele>98</ele>
        <time>2017-10-19T12:05:25Z</time>
      </trkpt>
      <trkpt lat="48.37485" lon="2.51675">
        <ele>100</ele>
        <time>2017-10-19T12:05:37Z</time>
      </trkpt>
      <trkpt lat="48.37494" lon="2.517">
        <ele>102</ele>
        <time>2017-10-19T12:06:05Z</time>
      </trkpt>
      <trkpt lat="48.37506" lon="2.51722">
        <ele>95</ele>
        <time>2017-10-19T12:06:24Z</time>
      </trkpt>
      <trkpt lat="48.37511" lon="2.51748">
        <ele>99</ele>
        <time>2017-10-19T12:06:45Z</time>
      </trkpt>
      <trkpt lat="48.37498" lon="2.51773">
        <ele>103</ele>
        <time>2017-10-19T12:06:56Z</time>
      </trkpt>
      <trkpt lat="48.37482" lon="2.51787">
        <ele>103</ele>
        <time>2017-10-19T12:07:17Z</time>
      </trkpt>
      <trkpt lat="48.37464" lon="2.51788">
        <ele>103</ele>
        <time>2017-10-19T12:07:26Z</time>
      </trkpt>
      <trkpt lat="48.37446" lon="2.51788">
        <ele>104</ele>
        <time>2017-10-19T12:07:38Z</time>
      </trkpt>
      <trkpt lat="48.37427" lon="2.51773">
        <ele>105</ele>
        <time>2017-10-19T12:07:53Z</time>
      </trkpt>
      <trkpt lat="48.37406" lon="2.51767">
        <ele>104</ele>
        <time>2017-10-19T12:08:10Z</time>
      </trkpt>
      <trkpt lat="48.37388" lon="2.51764">
        <ele>102</ele>
        <time>2017-10-19T12:08:25Z</time>
      </trkpt>
      <trkpt lat="48.37377" lon="2.51788">
        <ele>99</ele>
        <time>2017-10-19T12:08:41Z</time>
      </trkpt>
      <trkpt lat="48.37362" lon="2.51802">
        <ele>97</ele>
        <time>2017-10-19T12:09:01Z</time>
      </trkpt>
      <trkpt lat="48.37349" lon="2.51826">
        <ele>94</ele>
        <time>2017-10-19T12:09:37Z</time>
      </trkpt>
      <trkpt lat="48.3735" lon="2.51856">
        <ele>88</ele>
        <time>2017-10-19T12:10:09Z</time>
      </trkpt>
      <trkpt lat="48.3735" lon="2.51889">
        <ele>86</ele>
        <time>2017-10-19T12:10:36Z</time>
      </trkpt>
      <trkpt lat="48.37349" lon="2.51918">
        <ele>80</ele>
        <time>2017-10-19T12:10:42Z</time>
      </trkpt>
      <trkpt lat="48.37336" lon="2.51938">
        <ele>80</ele>
        <time>2017-10-19T12:10:49Z</time>
      </trkpt>
      <trkpt lat="48.37316" lon="2.51948">
        <ele>77</ele>
        <time>2017-10-19T12:11:05Z</time>
      </trkpt>
      <trkpt lat="48.37297" lon="2.51947">
        <ele>77</ele>
        <time>2017-10-19T12:11:13Z</time>
      </trkpt>
      <trkpt lat="48.37278" lon="2.51948">
        <ele>76</ele>
        <time>2017-10-19T12:11:25Z</time>
      </trkpt>
      <trkpt lat="48.37262" lon="2.51964">
        <ele>76</ele>
        <time>2017-10-19T12:11:37Z</time>
      </trkpt>
      <trkpt lat="48.37245" lon="2.51973">
        <ele>75</ele>
        <time>2017-10-19T12:11:45Z</time>
      </trkpt>
      <trkpt lat="48.3723" lon="2.5199">
        <ele>75</ele>
        <time>2017-10-19T12:11:57Z</time>
      </trkpt>
      <trkpt lat="48.37212" lon="2.52002">
        <ele>76</ele>
        <time>2017-10-19T12:12:09Z</time>
      </trkpt>
      <trkpt lat="48.37194" lon="2.52003">
        <ele>76</ele>
        <time>2017-10-19T12:12:21Z</time>
      </trkpt>
      <trkpt lat="48.37178" lon="2.52017">
        <ele>76</ele>
        <time>2017-10-19T12:12:32Z</time>
      </trkpt>
      <trkpt lat="48.37164" lon="2.52035">
        <ele>76</ele>
        <time>2017-10-19T12:12:44Z</time>
      </trkpt>
      <trkpt lat="48.37152" lon="2.52057">
        <ele>76</ele>
        <time>2017-10-19T12:12:57Z</time>
      </trkpt>
      <trkpt lat="48.37155" lon="2.52085">
        <ele>76</ele>
        <time>2017-10-19T12:13:08Z</time>
      </trkpt>
      <trkpt lat="48.37163" lon="2.52111">
        <ele>76</ele>
        <time>2017-10-19T12:13:20Z</time>
      </trkpt>
      <trkpt lat="48.3717" lon="2.52138">
        <ele>77</ele>
        <time>2017-10-19T12:13:30Z</time>
      </trkpt>
      <trkpt lat="48.37172" lon="2.52167">
        <ele>77</ele>
        <time>2017-10-19T12:13:41Z</time>
      </trkpt>
      <trkpt lat="48.37166" lon="2.52192">
        <ele>77</ele>
        <time>2017-10-19T12:13:48Z</time>
      </trkpt>
      <trkpt lat="48.37152" lon="2.52212">
        <ele>77</ele>
        <time>2017-10-19T12:14:01Z</time>
      </trkpt>
      <trkpt lat="48.37134" lon="2.52221">
        <ele>77</ele>
        <time>2017-10-19T12:14:17Z</time>
      </trkpt>
      <trkpt lat="48.37115" lon="2.52224">
        <ele>76</ele>
        <time>2017-10-19T12:14:30Z</time>
      </trkpt>
      <trkpt lat="48.371" lon="2.52238">
        <ele>76</ele>
        <time>2017-10-19T12:14:38Z</time>
      </trkpt>
      <trkpt lat="48.37083" lon="2.52251">
        <ele>76</ele>
        <time>2017-10-19T12:14:49Z</time>
      </trkpt>
      <trkpt lat="48.37064" lon="2.52258">
        <ele>76</ele>
        <time>2017-10-19T12:15:00Z</time>
      </trkpt>
      <trkpt lat="48.37045" lon="2.52265">
        <ele>76</ele>
        <time>2017-10-19T12:15:12Z</time>
      </trkpt>
      <trkpt lat="48.37027" lon="2.52273">
        <ele>76</ele>
        <time>2017-10-19T12:15:21Z</time>
      </trkpt>
      <trkpt lat="48.3701" lon="2.52281">
        <ele>76</ele>
        <time>2017-10-19T12:15:36Z</time>
      </trkpt>
      <trkpt lat="48.36991" lon="2.52291">
        <ele>75</ele>
        <time>2017-10-19T12:15:48Z</time>
      </trkpt>
      <trkpt lat="48.36973" lon="2.52301">
        <ele>75</ele>
        <time>2017-10-19T12:15:58Z</time>
      </trkpt>
      <trkpt lat="48.36958" lon="2.52318">
        <ele>75</ele>
        <time>2017-10-19T12:16:10Z</time>
      </trkpt>
      <trkpt lat="48.3694" lon="2.52308">
        <ele>75</ele>
        <time>2017-10-19T12:16:26Z</time>
      </trkpt>
      <trkpt lat="48.3693" lon="2.52284">
        <ele>75</ele>
        <time>2017-10-19T12:16:41Z</time>
      </trkpt>
      <trkpt lat="48.3692" lon="2.52261">
        <ele>74</ele>
        <time>2017-10-19T12:16:52Z</time>
      </trkpt>
      <trkpt lat="48.36908" lon="2.52241">
        <ele>74</ele>
        <time>2017-10-19T12:17:02Z</time>
      </trkpt>
      <trkpt lat="48.36902" lon="2.52213">
        <ele>75</ele>
        <time>2017-10-19T12:17:18Z</time>
      </trkpt>
      <trkpt lat="48.36891" lon="2.52192">
        <ele>75</ele>
        <time>2017-10-19T12:17:30Z</time>
      </trkpt>
      <trkpt lat="48.36875" lon="2.52178">
        <ele>75</ele>
        <time>2017-10-19T12:17:44Z</time>
      </trkpt>
      <trkpt lat="48.36857" lon="2.52166">
        <ele>75</ele>
        <time>2017-10-19T12:17:55Z</time>
      </trkpt>
      <trkpt lat="48.3684" lon="2.52159">
        <ele>76</ele>
        <time>2017-10-19T12:18:08Z</time>
      </trkpt>
      <trkpt lat="48.36818" lon="2.52161">
        <ele>76</ele>
        <time>2017-10-19T12:18:20Z</time>
      </trkpt>
      <trkpt lat="48.368" lon="2.5216">
        <ele>76</ele>
        <time>2017-10-19T12:18:33Z</time>
      </trkpt>
      <trkpt lat="48.36782" lon="2.52168">
        <ele>77</ele>
        <time>2017-10-19T12:18:48Z</time>
      </trkpt>
      <trkpt lat="48.36762" lon="2.52174">
        <ele>77</ele>
        <time>2017-10-19T12:18:55Z</time>
      </trkpt>
      <trkpt lat="48.36744" lon="2.52179">
        <ele>78</ele>
        <time>2017-10-19T12:19:07Z</time>
      </trkpt>
      <trkpt lat="48.36727" lon="2.52193">
        <ele>78</ele>
        <time>2017-10-19T12:19:18Z</time>
      </trkpt>
      <trkpt lat="48.36713" lon="2.52211">
        <ele>79</ele>
        <time>2017-10-19T12:19:30Z</time>
      </trkpt>
      <trkpt lat="48.36703" lon="2.52235">
        <ele>79</ele>
        <time>2017-10-19T12:19:56Z</time>
      </trkpt>
      <trkpt lat="48.36691" lon="2.52257">
        <ele>83</ele>
        <time>2017-10-19T12:20:04Z</time>
      </trkpt>
      <trkpt lat="48.36675" lon="2.5227">
        <ele>83</ele>
        <time>2017-10-19T12:20:22Z</time>
      </trkpt>
      <trkpt lat="48.36656" lon="2.52279">
        <ele>87</ele>
        <time>2017-10-19T12:20:37Z</time>
      </trkpt>
      <trkpt lat="48.36641" lon="2.52295">
        <ele>89</ele>
        <time>2017-10-19T12:20:45Z</time>
      </trkpt>
      <trkpt lat="48.3665" lon="2.52319">
        <ele>90</ele>
        <time>2017-10-19T12:22:58Z</time>
      </trkpt>
      <trkpt lat="48.36636" lon="2.52338">
        <ele>92</ele>
        <time>2017-10-19T12:23:46Z</time>
      </trkpt>
      <trkpt lat="48.36625" lon="2.52367">
        <ele>92</ele>
        <time>2017-10-19T12:24:43Z</time>
      </trkpt>
      <trkpt lat="48.36642" lon="2.52384">
        <ele>92</ele>
        <time>2017-10-19T12:25:11Z</time>
      </trkpt>
      <trkpt lat="48.3666" lon="2.52386">
        <ele>92</ele>
        <time>2017-10-19T12:25:25Z</time>
      </trkpt>
      <trkpt lat="48.36671" lon="2.52412">
        <ele>91</ele>
        <time>2017-10-19T12:26:03Z</time>
      </trkpt>
      <trkpt lat="48.36671" lon="2.52441">
        <ele>87</ele>
        <time>2017-10-19T12:26:15Z</time>
      </trkpt>
      <trkpt lat="48.36689" lon="2.52448">
        <ele>86</ele>
        <time>2017-10-19T12:26:45Z</time>
      </trkpt>
      <trkpt lat="48.36707" lon="2.5246">
        <ele>84</ele>
        <time>2017-10-19T12:26:54Z</time>
      </trkpt>
      <trkpt lat="48.36722" lon="2.52477">
        <ele>83</ele>
        <time>2017-10-19T12:27:17Z</time>
      </trkpt>
      <trkpt lat="48.36738" lon="2.52491">
        <ele>81</ele>
        <time>2017-10-19T12:27:27Z</time>
      </trkpt>
      <trkpt lat="48.36746" lon="2.52515">
        <ele>79</ele>
        <time>2017-10-19T12:27:37Z</time>
      </trkpt>
      <trkpt lat="48.36765" lon="2.52521">
        <ele>78</ele>
        <time>2017-10-19T12:27:56Z</time>
      </trkpt>
      <trkpt lat="48.36782" lon="2.52529">
        <ele>78</ele>
        <time>2017-10-19T12:28:10Z</time>
      </trkpt>
      <trkpt lat="48.36798" lon="2.52549">
        <ele>78</ele>
        <time>2017-10-19T12:28:21Z</time>
      </trkpt>
      <trkpt lat="48.36799" lon="2.52579">
        <ele>78</ele>
        <time>2017-10-19T12:28:32Z</time>
      </trkpt>
      <trkpt lat="48.36781" lon="2.526">
        <ele>77</ele>
        <time>2017-10-19T12:28:37Z</time>
      </trkpt>
      <trkpt lat="48.36764" lon="2.52616">
        <ele>77</ele>
        <time>2017-10-19T12:28:44Z</time>
      </trkpt>
      <trkpt lat="48.36749" lon="2.52631">
        <ele>77</ele>
        <time>2017-10-19T12:28:51Z</time>
      </trkpt>
      <trkpt lat="48.36733" lon="2.52651">
        <ele>77</ele>
        <time>2017-10-19T12:28:59Z</time>
      </trkpt>
      <trkpt lat="48.36713" lon="2.52663">
        <ele>77</ele>
        <time>2017-10-19T12:29:06Z</time>
      </trkpt>
      <trkpt lat="48.36694" lon="2.52658">
        <ele>77</ele>
        <time>2017-10-19T12:29:15Z</time>
      </trkpt>
      <trkpt lat="48.36676" lon="2.52655">
        <ele>77</ele>
        <time>2017-10-19T12:29:31Z</time>
      </trkpt>
      <trkpt lat="48.36658" lon="2.52647">
        <ele>77</ele>
        <time>2017-10-19T12:29:42Z</time>
      </trkpt>
      <trkpt lat="48.36639" lon="2.52649">
        <ele>77</ele>
        <time>2017-10-19T12:29:57Z</time>
      </trkpt>
      <trkpt lat="48.36621" lon="2.52651">
        <ele>77</ele>
        <time>2017-10-19T12:30:09Z</time>
      </trkpt>
      <trkpt lat="48.36602" lon="2.5266">
        <ele>77</ele>
        <time>2017-10-19T12:30:21Z</time>
      </trkpt>
      <trkpt lat="48.36584" lon="2.52669">
        <ele>76</ele>
        <time>2017-10-19T12:30:32Z</time>
      </trkpt>
      <trkpt lat="48.36569" lon="2.52685">
        <ele>76</ele>
        <time>2017-10-19T12:30:41Z</time>
      </trkpt>
      <trkpt lat="48.3655" lon="2.52682">
        <ele>76</ele>
        <time>2017-10-19T12:30:51Z</time>
      </trkpt>
      <trkpt lat="48.36533" lon="2.52675">
        <ele>76</ele>
        <time>2017-10-19T12:31:03Z</time>
      </trkpt>
      <trkpt lat="48.36514" lon="2.52682">
        <ele>76</ele>
        <time>2017-10-19T12:31:16Z</time>
      </trkpt>
      <trkpt lat="48.36499" lon="2.52697">
        <ele>76</ele>
        <time>2017-10-19T12:31:29Z</time>
      </trkpt>
      <trkpt lat="48.36479" lon="2.52709">
        <ele>75</ele>
        <time>2017-10-19T12:31:41Z</time>
      </trkpt>
      <trkpt lat="48.36463" lon="2.52724">
        <ele>75</ele>
        <time>2017-10-19T12:31:54Z</time>
      </trkpt>
      <trkpt lat="48.36444" lon="2.52724">
        <ele>75</ele>
        <time>2017-10-19T12:32:09Z</time>
      </trkpt>
      <trkpt lat="48.36426" lon="2.52715">
        <ele>75</ele>
        <time>2017-10-19T12:32:22Z</time>
      </trkpt>
      <trkpt lat="48.36407" lon="2.5272">
        <ele>74</ele>
        <time>2017-10-19T12:32:33Z</time>
      </trkpt>
      <trkpt lat="48.3639" lon="2.52732">
        <ele>74</ele>
        <time>2017-10-19T12:32:45Z</time>
      </trkpt>
    </trkseg>
  </trk>
</gpx>